<?xml version="1.0" encoding="UTF-8" standalone="no" ?>
<gpx xmlns="http://www.topografix.com/GPX/1/1" xmlns:xsi="http://www.w3.org/2001/XMLSchema-instance" xsi:schemaLocation="http://www.topografix.com/GPX/1/1 http://www.topografix.com/GPX/1/1/gpx.xsd" version="1.1" creator="VisuGPX - https://www.visugpx.com">
  <metadata>
    <name>2024-03-23 VILLASAVARY GRANDE BOUCLE DE LA PIEGE</name>
    <desc><![CDATA[VILLASAVARY / BESPLAS / LAURAC / PUY DU FAUCHE / MONT CARRIERE
#11 #RANDOX #VILLASAVARY #PIEGE


#RANDO-FAVORITE]]></desc>
  </metadata>
  <trk>
    <name><![CDATA[2024-03-23 08:50:09]]></name>
    <extensions>
      <line xmlns="http://www.topografix.com/GPX/gpx_style/0/2">
        <color>0000FF</color>
        <width>4</width>
      </line>
    </extensions>
    <trkseg>
      <trkpt lat="43.2185" lon="2.03427">
        <ele>189</ele>
        <time>2024-03-23T07:50:09Z</time>
      </trkpt>
      <trkpt lat="43.2186" lon="2.03374">
        <ele>183.19921875</ele>
        <time>2024-03-23T07:50:10.117Z</time>
      </trkpt>
      <trkpt lat="43.21856" lon="2.03215">
        <ele>183.84765625</ele>
        <time>2024-03-23T07:50:13.365Z</time>
      </trkpt>
      <trkpt lat="43.21831" lon="2.03167">
        <ele>185.328125</ele>
        <time>2024-03-23T07:50:14.569Z</time>
      </trkpt>
      <trkpt lat="43.21863" lon="2.03156">
        <ele>183.24609375</ele>
        <time>2024-03-23T07:50:15.493Z</time>
      </trkpt>
      <trkpt lat="43.2188" lon="2.03131">
        <ele>183.140625</ele>
        <time>2024-03-23T07:50:16.191Z</time>
      </trkpt>
      <trkpt lat="43.21883" lon="2.03118">
        <ele>183.328125</ele>
        <time>2024-03-23T07:50:16.469Z</time>
      </trkpt>
      <trkpt lat="43.21873" lon="2.03102">
        <ele>183.421875</ele>
        <time>2024-03-23T07:50:16.899Z</time>
      </trkpt>
      <trkpt lat="43.21873" lon="2.03089">
        <ele>183.6015625</ele>
        <time>2024-03-23T07:50:17.164Z</time>
      </trkpt>
      <trkpt lat="43.21897" lon="2.03031">
        <ele>185.296875</ele>
        <time>2024-03-23T07:50:18.526Z</time>
      </trkpt>
      <trkpt lat="43.21897" lon="2.03007">
        <ele>185.54296875</ele>
        <time>2024-03-23T07:50:19.016Z</time>
      </trkpt>
      <trkpt lat="43.21973" lon="2.02961">
        <ele>190.7734375</ele>
        <time>2024-03-23T07:50:21.344Z</time>
      </trkpt>
      <trkpt lat="43.22012" lon="2.02949">
        <ele>192.28125</ele>
        <time>2024-03-23T07:50:22.464Z</time>
      </trkpt>
      <trkpt lat="43.22083" lon="2.02955">
        <ele>194.24609375</ele>
        <time>2024-03-23T07:50:24.458Z</time>
      </trkpt>
      <trkpt lat="43.22137" lon="2.02941">
        <ele>188.19999694824</ele>
        <time>2024-03-23T07:50:26Z</time>
      </trkpt>
      <trkpt lat="43.22141" lon="2.029">
        <ele>189</ele>
        <time>2024-03-23T07:50:57Z</time>
      </trkpt>
      <trkpt lat="43.22127" lon="2.02846">
        <ele>189.60000610352</ele>
        <time>2024-03-23T07:51:43Z</time>
      </trkpt>
      <trkpt lat="43.22114" lon="2.02791">
        <ele>190.39999389648</ele>
        <time>2024-03-23T07:52:21Z</time>
      </trkpt>
      <trkpt lat="43.22103" lon="2.02751">
        <ele>190.19999694824</ele>
        <time>2024-03-23T07:52:55Z</time>
      </trkpt>
      <trkpt lat="43.22077" lon="2.02644">
        <ele>193.60000610352</ele>
        <time>2024-03-23T07:53:59Z</time>
      </trkpt>
      <trkpt lat="43.22074" lon="2.02631">
        <ele>194</ele>
        <time>2024-03-23T07:54:07Z</time>
      </trkpt>
      <trkpt lat="43.2208" lon="2.02558">
        <ele>197.39999389648</ele>
        <time>2024-03-23T07:54:49Z</time>
      </trkpt>
      <trkpt lat="43.22073" lon="2.02485">
        <ele>199.39999389648</ele>
        <time>2024-03-23T07:55:30Z</time>
      </trkpt>
      <trkpt lat="43.22053" lon="2.02351">
        <ele>202.80000305176</ele>
        <time>2024-03-23T07:56:53Z</time>
      </trkpt>
      <trkpt lat="43.2206" lon="2.02334">
        <ele>203.80000305176</ele>
        <time>2024-03-23T07:57:10Z</time>
      </trkpt>
      <trkpt lat="43.22083" lon="2.02328">
        <ele>207.80000305176</ele>
        <time>2024-03-23T07:57:32Z</time>
      </trkpt>
      <trkpt lat="43.22085" lon="2.02316">
        <ele>211.19999694824</ele>
        <time>2024-03-23T07:58:24Z</time>
      </trkpt>
      <trkpt lat="43.22086" lon="2.0231">
        <ele>211.19999694824</ele>
        <time>2024-03-23T07:59:03Z</time>
      </trkpt>
      <trkpt lat="43.22085" lon="2.023">
        <ele>212.60000610352</ele>
        <time>2024-03-23T07:59:55Z</time>
      </trkpt>
      <trkpt lat="43.22085" lon="2.023">
        <ele>212.19999694824</ele>
        <time>2024-03-23T08:00:56Z</time>
      </trkpt>
      <trkpt lat="43.22092" lon="2.02267">
        <ele>213.80000305176</ele>
        <time>2024-03-23T08:01:17Z</time>
      </trkpt>
      <trkpt lat="43.221" lon="2.02241">
        <ele>217</ele>
        <time>2024-03-23T08:01:38Z</time>
      </trkpt>
      <trkpt lat="43.221" lon="2.02237">
        <ele>217.39999389648</ele>
        <time>2024-03-23T08:01:41Z</time>
      </trkpt>
      <trkpt lat="43.22094" lon="2.02223">
        <ele>220.60000610352</ele>
        <time>2024-03-23T08:01:58Z</time>
      </trkpt>
      <trkpt lat="43.22092" lon="2.02219">
        <ele>220.80000305176</ele>
        <time>2024-03-23T08:02:01Z</time>
      </trkpt>
      <trkpt lat="43.22101" lon="2.02194">
        <ele>225.39999389648</ele>
        <time>2024-03-23T08:02:36Z</time>
      </trkpt>
      <trkpt lat="43.22111" lon="2.02191">
        <ele>228.60000610352</ele>
        <time>2024-03-23T08:02:55Z</time>
      </trkpt>
      <trkpt lat="43.2211" lon="2.02166">
        <ele>233</ele>
        <time>2024-03-23T08:03:27Z</time>
      </trkpt>
      <trkpt lat="43.22109" lon="2.02145">
        <ele>237.19999694824</ele>
        <time>2024-03-23T08:04:05Z</time>
      </trkpt>
      <trkpt lat="43.22109" lon="2.02131">
        <ele>241</ele>
        <time>2024-03-23T08:04:47Z</time>
      </trkpt>
      <trkpt lat="43.22106" lon="2.0211">
        <ele>242.60000610352</ele>
        <time>2024-03-23T08:06:34Z</time>
      </trkpt>
      <trkpt lat="43.22104" lon="2.02097">
        <ele>245.80000305176</ele>
        <time>2024-03-23T08:06:46Z</time>
      </trkpt>
      <trkpt lat="43.22105" lon="2.02087">
        <ele>248.80000305176</ele>
        <time>2024-03-23T08:06:58Z</time>
      </trkpt>
      <trkpt lat="43.22105" lon="2.02078">
        <ele>251.80000305176</ele>
        <time>2024-03-23T08:07:12Z</time>
      </trkpt>
      <trkpt lat="43.2211" lon="2.02066">
        <ele>255</ele>
        <time>2024-03-23T08:07:28Z</time>
      </trkpt>
      <trkpt lat="43.22111" lon="2.02051">
        <ele>258</ele>
        <time>2024-03-23T08:07:48Z</time>
      </trkpt>
      <trkpt lat="43.22112" lon="2.02027">
        <ele>261.39999389648</ele>
        <time>2024-03-23T08:08:26Z</time>
      </trkpt>
      <trkpt lat="43.22117" lon="2.01999">
        <ele>267</ele>
        <time>2024-03-23T08:08:58Z</time>
      </trkpt>
      <trkpt lat="43.22119" lon="2.01992">
        <ele>270</ele>
        <time>2024-03-23T08:09:38Z</time>
      </trkpt>
      <trkpt lat="43.22121" lon="2.01969">
        <ele>270.79998779297</ele>
        <time>2024-03-23T08:11:57Z</time>
      </trkpt>
      <trkpt lat="43.22124" lon="2.01921">
        <ele>266.60000610352</ele>
        <time>2024-03-23T08:12:51Z</time>
      </trkpt>
      <trkpt lat="43.22118" lon="2.01899">
        <ele>264.79998779297</ele>
        <time>2024-03-23T08:13:12Z</time>
      </trkpt>
      <trkpt lat="43.22116" lon="2.01884">
        <ele>264.79998779297</ele>
        <time>2024-03-23T08:13:23Z</time>
      </trkpt>
      <trkpt lat="43.22083" lon="2.01841">
        <ele>260.20001220703</ele>
        <time>2024-03-23T08:14:04Z</time>
      </trkpt>
      <trkpt lat="43.22082" lon="2.01839">
        <ele>260</ele>
        <time>2024-03-23T08:14:06Z</time>
      </trkpt>
      <trkpt lat="43.22065" lon="2.01799">
        <ele>256.20001220703</ele>
        <time>2024-03-23T08:14:38Z</time>
      </trkpt>
      <trkpt lat="43.2206" lon="2.0178">
        <ele>256</ele>
        <time>2024-03-23T08:14:53Z</time>
      </trkpt>
      <trkpt lat="43.22073" lon="2.01761">
        <ele>255.60000610352</ele>
        <time>2024-03-23T08:15:27Z</time>
      </trkpt>
      <trkpt lat="43.22087" lon="2.01762">
        <ele>252.60000610352</ele>
        <time>2024-03-23T08:15:52Z</time>
      </trkpt>
      <trkpt lat="43.22099" lon="2.01753">
        <ele>250</ele>
        <time>2024-03-23T08:16:19Z</time>
      </trkpt>
      <trkpt lat="43.22114" lon="2.01753">
        <ele>247</ele>
        <time>2024-03-23T08:16:34Z</time>
      </trkpt>
      <trkpt lat="43.22132" lon="2.01751">
        <ele>244</ele>
        <time>2024-03-23T08:16:50Z</time>
      </trkpt>
      <trkpt lat="43.22146" lon="2.01768">
        <ele>239.19999694824</ele>
        <time>2024-03-23T08:17:09Z</time>
      </trkpt>
      <trkpt lat="43.2216" lon="2.01767">
        <ele>235.60000610352</ele>
        <time>2024-03-23T08:17:52Z</time>
      </trkpt>
      <trkpt lat="43.22183" lon="2.01759">
        <ele>230</ele>
        <time>2024-03-23T08:18:32Z</time>
      </trkpt>
      <trkpt lat="43.22198" lon="2.01752">
        <ele>227</ele>
        <time>2024-03-23T08:18:46Z</time>
      </trkpt>
      <trkpt lat="43.22199" lon="2.01746">
        <ele>224</ele>
        <time>2024-03-23T08:19:05Z</time>
      </trkpt>
      <trkpt lat="43.22208" lon="2.01741">
        <ele>220</ele>
        <time>2024-03-23T08:19:33Z</time>
      </trkpt>
      <trkpt lat="43.22218" lon="2.01743">
        <ele>219.80000305176</ele>
        <time>2024-03-23T08:19:52Z</time>
      </trkpt>
      <trkpt lat="43.22231" lon="2.01774">
        <ele>218.60000610352</ele>
        <time>2024-03-23T08:20:37Z</time>
      </trkpt>
      <trkpt lat="43.22237" lon="2.01782">
        <ele>217.80000305176</ele>
        <time>2024-03-23T08:20:46Z</time>
      </trkpt>
      <trkpt lat="43.22264" lon="2.01821">
        <ele>216</ele>
        <time>2024-03-23T08:21:21Z</time>
      </trkpt>
      <trkpt lat="43.22287" lon="2.01864">
        <ele>213.80000305176</ele>
        <time>2024-03-23T08:21:56Z</time>
      </trkpt>
      <trkpt lat="43.22289" lon="2.01872">
        <ele>213.60000610352</ele>
        <time>2024-03-23T08:22:02Z</time>
      </trkpt>
      <trkpt lat="43.22291" lon="2.01881">
        <ele>213.39999389648</ele>
        <time>2024-03-23T08:22:10Z</time>
      </trkpt>
      <trkpt lat="43.22306" lon="2.0185">
        <ele>213</ele>
        <time>2024-03-23T08:22:48Z</time>
      </trkpt>
      <trkpt lat="43.2231" lon="2.01846">
        <ele>213.19999694824</ele>
        <time>2024-03-23T08:22:54Z</time>
      </trkpt>
      <trkpt lat="43.22329" lon="2.01802">
        <ele>216.80000305176</ele>
        <time>2024-03-23T08:23:31Z</time>
      </trkpt>
      <trkpt lat="43.22343" lon="2.01769">
        <ele>220.60000610352</ele>
        <time>2024-03-23T08:24:00Z</time>
      </trkpt>
      <trkpt lat="43.22349" lon="2.0176">
        <ele>222.39999389648</ele>
        <time>2024-03-23T08:24:23Z</time>
      </trkpt>
      <trkpt lat="43.22394" lon="2.01758">
        <ele>224.39999389648</ele>
        <time>2024-03-23T08:25:03Z</time>
      </trkpt>
      <trkpt lat="43.22422" lon="2.01709">
        <ele>226.80000305176</ele>
        <time>2024-03-23T08:25:49Z</time>
      </trkpt>
      <trkpt lat="43.22421" lon="2.01691">
        <ele>229.80000305176</ele>
        <time>2024-03-23T08:26:34Z</time>
      </trkpt>
      <trkpt lat="43.22419" lon="2.01682">
        <ele>233</ele>
        <time>2024-03-23T08:26:52Z</time>
      </trkpt>
      <trkpt lat="43.22443" lon="2.01639">
        <ele>234.80000305176</ele>
        <time>2024-03-23T08:27:38Z</time>
      </trkpt>
      <trkpt lat="43.22458" lon="2.01597">
        <ele>234.60000610352</ele>
        <time>2024-03-23T08:28:15Z</time>
      </trkpt>
      <trkpt lat="43.22473" lon="2.01521">
        <ele>232.80000305176</ele>
        <time>2024-03-23T08:29:27Z</time>
      </trkpt>
      <trkpt lat="43.22455" lon="2.01495">
        <ele>238.19999694824</ele>
        <time>2024-03-23T08:30:08Z</time>
      </trkpt>
      <trkpt lat="43.22448" lon="2.01484">
        <ele>241.39999389648</ele>
        <time>2024-03-23T08:30:24Z</time>
      </trkpt>
      <trkpt lat="43.22424" lon="2.01468">
        <ele>246</ele>
        <time>2024-03-23T08:31:11Z</time>
      </trkpt>
      <trkpt lat="43.22424" lon="2.0145">
        <ele>249</ele>
        <time>2024-03-23T08:31:32Z</time>
      </trkpt>
      <trkpt lat="43.2243" lon="2.01423">
        <ele>249</ele>
        <time>2024-03-23T08:32:00Z</time>
      </trkpt>
      <trkpt lat="43.22448" lon="2.01405">
        <ele>248.19999694824</ele>
        <time>2024-03-23T08:32:24Z</time>
      </trkpt>
      <trkpt lat="43.22489" lon="2.01366">
        <ele>253.19999694824</ele>
        <time>2024-03-23T08:33:25Z</time>
      </trkpt>
      <trkpt lat="43.22518" lon="2.01366">
        <ele>258.79998779297</ele>
        <time>2024-03-23T08:34:12Z</time>
      </trkpt>
      <trkpt lat="43.22529" lon="2.01354">
        <ele>262.79998779297</ele>
        <time>2024-03-23T08:35:22Z</time>
      </trkpt>
      <trkpt lat="43.22554" lon="2.01346">
        <ele>263.79998779297</ele>
        <time>2024-03-23T08:37:01Z</time>
      </trkpt>
      <trkpt lat="43.2258" lon="2.0133">
        <ele>264.20001220703</ele>
        <time>2024-03-23T08:37:30Z</time>
      </trkpt>
      <trkpt lat="43.22614" lon="2.01325">
        <ele>264.79998779297</ele>
        <time>2024-03-23T08:38:02Z</time>
      </trkpt>
      <trkpt lat="43.2262" lon="2.01343">
        <ele>265.39999389648</ele>
        <time>2024-03-23T08:38:47Z</time>
      </trkpt>
      <trkpt lat="43.22622" lon="2.01353">
        <ele>267.20001220703</ele>
        <time>2024-03-23T08:40:14Z</time>
      </trkpt>
      <trkpt lat="43.22621" lon="2.01348">
        <ele>267.20001220703</ele>
        <time>2024-03-23T08:41:48Z</time>
      </trkpt>
      <trkpt lat="43.22616" lon="2.01321">
        <ele>265.79998779297</ele>
        <time>2024-03-23T08:42:29Z</time>
      </trkpt>
      <trkpt lat="43.22615" lon="2.01319">
        <ele>265.79998779297</ele>
        <time>2024-03-23T08:44:08Z</time>
      </trkpt>
      <trkpt lat="43.22623" lon="2.01339">
        <ele>265.39999389648</ele>
        <time>2024-03-23T08:45:15Z</time>
      </trkpt>
      <trkpt lat="43.22629" lon="2.01331">
        <ele>265.60000610352</ele>
        <time>2024-03-23T08:45:24Z</time>
      </trkpt>
      <trkpt lat="43.22633" lon="2.013">
        <ele>264.79998779297</ele>
        <time>2024-03-23T08:45:52Z</time>
      </trkpt>
      <trkpt lat="43.22678" lon="2.01207">
        <ele>262.60000610352</ele>
        <time>2024-03-23T08:47:07Z</time>
      </trkpt>
      <trkpt lat="43.22727" lon="2.01152">
        <ele>259.39999389648</ele>
        <time>2024-03-23T08:48:02Z</time>
      </trkpt>
      <trkpt lat="43.22761" lon="2.01054">
        <ele>255.80000305176</ele>
        <time>2024-03-23T08:49:20Z</time>
      </trkpt>
      <trkpt lat="43.2276" lon="2.01039">
        <ele>255.60000610352</ele>
        <time>2024-03-23T08:49:52Z</time>
      </trkpt>
      <trkpt lat="43.22773" lon="2.00976">
        <ele>254</ele>
        <time>2024-03-23T08:51:04Z</time>
      </trkpt>
      <trkpt lat="43.22799" lon="2.00893">
        <ele>251.39999389648</ele>
        <time>2024-03-23T08:52:15Z</time>
      </trkpt>
      <trkpt lat="43.22811" lon="2.00864">
        <ele>251.60000610352</ele>
        <time>2024-03-23T08:52:40Z</time>
      </trkpt>
      <trkpt lat="43.22803" lon="2.00795">
        <ele>250.60000610352</ele>
        <time>2024-03-23T08:53:28Z</time>
      </trkpt>
      <trkpt lat="43.22813" lon="2.00752">
        <ele>248.19999694824</ele>
        <time>2024-03-23T08:54:23Z</time>
      </trkpt>
      <trkpt lat="43.22822" lon="2.00731">
        <ele>244</ele>
        <time>2024-03-23T08:54:44Z</time>
      </trkpt>
      <trkpt lat="43.22826" lon="2.00699">
        <ele>238.19999694824</ele>
        <time>2024-03-23T08:55:16Z</time>
      </trkpt>
      <trkpt lat="43.22832" lon="2.0066">
        <ele>234.60000610352</ele>
        <time>2024-03-23T08:55:43Z</time>
      </trkpt>
      <trkpt lat="43.22847" lon="2.00625">
        <ele>232.39999389648</ele>
        <time>2024-03-23T08:56:12Z</time>
      </trkpt>
      <trkpt lat="43.22889" lon="2.00593">
        <ele>227.19999694824</ele>
        <time>2024-03-23T08:57:05Z</time>
      </trkpt>
      <trkpt lat="43.22894" lon="2.00585">
        <ele>224</ele>
        <time>2024-03-23T08:57:16Z</time>
      </trkpt>
      <trkpt lat="43.229" lon="2.00568">
        <ele>221</ele>
        <time>2024-03-23T08:57:36Z</time>
      </trkpt>
      <trkpt lat="43.22913" lon="2.00534">
        <ele>216.19999694824</ele>
        <time>2024-03-23T08:58:03Z</time>
      </trkpt>
      <trkpt lat="43.22923" lon="2.00492">
        <ele>212.80000305176</ele>
        <time>2024-03-23T08:58:37Z</time>
      </trkpt>
      <trkpt lat="43.22928" lon="2.0047">
        <ele>209.80000305176</ele>
        <time>2024-03-23T08:58:56Z</time>
      </trkpt>
      <trkpt lat="43.22931" lon="2.00458">
        <ele>208.80000305176</ele>
        <time>2024-03-23T08:59:04Z</time>
      </trkpt>
      <trkpt lat="43.22944" lon="2.00437">
        <ele>205.39999389648</ele>
        <time>2024-03-23T08:59:25Z</time>
      </trkpt>
      <trkpt lat="43.22951" lon="2.00427">
        <ele>202.39999389648</ele>
        <time>2024-03-23T08:59:39Z</time>
      </trkpt>
      <trkpt lat="43.22961" lon="2.00418">
        <ele>199.39999389648</ele>
        <time>2024-03-23T08:59:54Z</time>
      </trkpt>
      <trkpt lat="43.22967" lon="2.00408">
        <ele>196.19999694824</ele>
        <time>2024-03-23T09:00:05Z</time>
      </trkpt>
      <trkpt lat="43.22993" lon="2.00386">
        <ele>191.39999389648</ele>
        <time>2024-03-23T09:00:33Z</time>
      </trkpt>
      <trkpt lat="43.23007" lon="2.00374">
        <ele>191.19999694824</ele>
        <time>2024-03-23T09:01:11Z</time>
      </trkpt>
      <trkpt lat="43.2302" lon="2.00364">
        <ele>192.60000610352</ele>
        <time>2024-03-23T09:02:03Z</time>
      </trkpt>
      <trkpt lat="43.23031" lon="2.00376">
        <ele>193.60000610352</ele>
        <time>2024-03-23T09:02:28Z</time>
      </trkpt>
      <trkpt lat="43.23032" lon="2.0037">
        <ele>194</ele>
        <time>2024-03-23T09:03:40Z</time>
      </trkpt>
      <trkpt lat="43.23041" lon="2.00368">
        <ele>194.39999389648</ele>
        <time>2024-03-23T09:04:10Z</time>
      </trkpt>
      <trkpt lat="43.23073" lon="2.00371">
        <ele>197.60000610352</ele>
        <time>2024-03-23T09:04:50Z</time>
      </trkpt>
      <trkpt lat="43.23105" lon="2.00344">
        <ele>202.19999694824</ele>
        <time>2024-03-23T09:05:33Z</time>
      </trkpt>
      <trkpt lat="43.23126" lon="2.00332">
        <ele>207.60000610352</ele>
        <time>2024-03-23T09:06:08Z</time>
      </trkpt>
      <trkpt lat="43.2314" lon="2.00327">
        <ele>210.60000610352</ele>
        <time>2024-03-23T09:06:33Z</time>
      </trkpt>
      <trkpt lat="43.23176" lon="2.00305">
        <ele>216.80000305176</ele>
        <time>2024-03-23T09:07:20Z</time>
      </trkpt>
      <trkpt lat="43.23193" lon="2.00281">
        <ele>221</ele>
        <time>2024-03-23T09:08:05Z</time>
      </trkpt>
      <trkpt lat="43.23202" lon="2.00274">
        <ele>224.19999694824</ele>
        <time>2024-03-23T09:08:25Z</time>
      </trkpt>
      <trkpt lat="43.23212" lon="2.00252">
        <ele>226.60000610352</ele>
        <time>2024-03-23T09:08:47Z</time>
      </trkpt>
      <trkpt lat="43.23239" lon="2.00192">
        <ele>230</ele>
        <time>2024-03-23T09:09:48Z</time>
      </trkpt>
      <trkpt lat="43.23243" lon="2.00188">
        <ele>230.19999694824</ele>
        <time>2024-03-23T09:09:52Z</time>
      </trkpt>
      <trkpt lat="43.23287" lon="2.00165">
        <ele>228.60000610352</ele>
        <time>2024-03-23T09:10:37Z</time>
      </trkpt>
      <trkpt lat="43.23294" lon="2.00157">
        <ele>227.39999389648</ele>
        <time>2024-03-23T09:11:16Z</time>
      </trkpt>
      <trkpt lat="43.23304" lon="2.00138">
        <ele>227</ele>
        <time>2024-03-23T09:12:19Z</time>
      </trkpt>
      <trkpt lat="43.23304" lon="2.0014">
        <ele>226.80000305176</ele>
        <time>2024-03-23T09:14:21Z</time>
      </trkpt>
      <trkpt lat="43.23304" lon="2.00143">
        <ele>226.60000610352</ele>
        <time>2024-03-23T09:15:49Z</time>
      </trkpt>
      <trkpt lat="43.23323" lon="2.00089">
        <ele>221.80000305176</ele>
        <time>2024-03-23T09:17:09Z</time>
      </trkpt>
      <trkpt lat="43.23328" lon="2.00051">
        <ele>218.19999694824</ele>
        <time>2024-03-23T09:18:02Z</time>
      </trkpt>
      <trkpt lat="43.23327" lon="2.00022">
        <ele>212.80000305176</ele>
        <time>2024-03-23T09:18:35Z</time>
      </trkpt>
      <trkpt lat="43.23327" lon="2.00007">
        <ele>209.80000305176</ele>
        <time>2024-03-23T09:18:50Z</time>
      </trkpt>
      <trkpt lat="43.23325" lon="1.99997">
        <ele>206.80000305176</ele>
        <time>2024-03-23T09:19:01Z</time>
      </trkpt>
      <trkpt lat="43.23334" lon="1.99985">
        <ele>203.60000610352</ele>
        <time>2024-03-23T09:19:18Z</time>
      </trkpt>
      <trkpt lat="43.23344" lon="1.99959">
        <ele>202</ele>
        <time>2024-03-23T09:19:51Z</time>
      </trkpt>
      <trkpt lat="43.23351" lon="1.9992">
        <ele>202.80000305176</ele>
        <time>2024-03-23T09:21:24Z</time>
      </trkpt>
      <trkpt lat="43.23356" lon="1.99851">
        <ele>207</ele>
        <time>2024-03-23T09:22:09Z</time>
      </trkpt>
      <trkpt lat="43.23357" lon="1.99795">
        <ele>210.80000305176</ele>
        <time>2024-03-23T09:22:48Z</time>
      </trkpt>
      <trkpt lat="43.2336" lon="1.99734">
        <ele>213.60000610352</ele>
        <time>2024-03-23T09:23:27Z</time>
      </trkpt>
      <trkpt lat="43.23402" lon="1.99636">
        <ele>217.60000610352</ele>
        <time>2024-03-23T09:24:47Z</time>
      </trkpt>
      <trkpt lat="43.23426" lon="1.99588">
        <ele>220.39999389648</ele>
        <time>2024-03-23T09:25:30Z</time>
      </trkpt>
      <trkpt lat="43.23457" lon="1.9952">
        <ele>221</ele>
        <time>2024-03-23T09:26:55Z</time>
      </trkpt>
      <trkpt lat="43.23455" lon="1.99499">
        <ele>220.60000610352</ele>
        <time>2024-03-23T09:28:29Z</time>
      </trkpt>
      <trkpt lat="43.23444" lon="1.99464">
        <ele>220.19999694824</ele>
        <time>2024-03-23T09:28:46Z</time>
      </trkpt>
      <trkpt lat="43.23429" lon="1.9941">
        <ele>219.39999389648</ele>
        <time>2024-03-23T09:29:21Z</time>
      </trkpt>
      <trkpt lat="43.23395" lon="1.99306">
        <ele>219.80000305176</ele>
        <time>2024-03-23T09:30:31Z</time>
      </trkpt>
      <trkpt lat="43.23359" lon="1.99175">
        <ele>220.39999389648</ele>
        <time>2024-03-23T09:31:55Z</time>
      </trkpt>
      <trkpt lat="43.23359" lon="1.99173">
        <ele>220.39999389648</ele>
        <time>2024-03-23T09:31:56Z</time>
      </trkpt>
      <trkpt lat="43.23364" lon="1.99131">
        <ele>217</ele>
        <time>2024-03-23T09:32:21Z</time>
      </trkpt>
      <trkpt lat="43.23368" lon="1.99095">
        <ele>214.80000305176</ele>
        <time>2024-03-23T09:32:41Z</time>
      </trkpt>
      <trkpt lat="43.23361" lon="1.99064">
        <ele>213</ele>
        <time>2024-03-23T09:32:59Z</time>
      </trkpt>
      <trkpt lat="43.23355" lon="1.99035">
        <ele>213</ele>
        <time>2024-03-23T09:33:15Z</time>
      </trkpt>
      <trkpt lat="43.23345" lon="1.99004">
        <ele>213</ele>
        <time>2024-03-23T09:33:37Z</time>
      </trkpt>
      <trkpt lat="43.23334" lon="1.99011">
        <ele>214.19999694824</ele>
        <time>2024-03-23T09:33:51Z</time>
      </trkpt>
      <trkpt lat="43.23331" lon="1.99017">
        <ele>215.19999694824</ele>
        <time>2024-03-23T09:33:56Z</time>
      </trkpt>
      <trkpt lat="43.2333" lon="1.9902">
        <ele>215.60000610352</ele>
        <time>2024-03-23T09:33:58Z</time>
      </trkpt>
      <trkpt lat="43.23259" lon="1.9913">
        <ele>216.80000305176</ele>
        <time>2024-03-23T09:35:23Z</time>
      </trkpt>
      <trkpt lat="43.23235" lon="1.99156">
        <ele>218</ele>
        <time>2024-03-23T09:35:47Z</time>
      </trkpt>
      <trkpt lat="43.23221" lon="1.99159">
        <ele>218.19999694824</ele>
        <time>2024-03-23T09:35:59Z</time>
      </trkpt>
      <trkpt lat="43.232" lon="1.99128">
        <ele>214.39999389648</ele>
        <time>2024-03-23T09:36:30Z</time>
      </trkpt>
      <trkpt lat="43.23201" lon="1.99096">
        <ele>212</ele>
        <time>2024-03-23T09:36:48Z</time>
      </trkpt>
      <trkpt lat="43.232" lon="1.99095">
        <ele>211.80000305176</ele>
        <time>2024-03-23T09:36:49Z</time>
      </trkpt>
      <trkpt lat="43.23201" lon="1.99051">
        <ele>208.80000305176</ele>
        <time>2024-03-23T09:37:14Z</time>
      </trkpt>
      <trkpt lat="43.232" lon="1.98971">
        <ele>205</ele>
        <time>2024-03-23T09:38:00Z</time>
      </trkpt>
      <trkpt lat="43.23199" lon="1.98899">
        <ele>200.39999389648</ele>
        <time>2024-03-23T09:38:40Z</time>
      </trkpt>
      <trkpt lat="43.23201" lon="1.98866">
        <ele>197.60000610352</ele>
        <time>2024-03-23T09:39:00Z</time>
      </trkpt>
      <trkpt lat="43.23203" lon="1.9885">
        <ele>196</ele>
        <time>2024-03-23T09:39:10Z</time>
      </trkpt>
      <trkpt lat="43.23217" lon="1.98813">
        <ele>192.80000305176</ele>
        <time>2024-03-23T09:39:39Z</time>
      </trkpt>
      <trkpt lat="43.23221" lon="1.9877">
        <ele>197</ele>
        <time>2024-03-23T09:40:14Z</time>
      </trkpt>
      <trkpt lat="43.23222" lon="1.98753">
        <ele>200</ele>
        <time>2024-03-23T09:40:29Z</time>
      </trkpt>
      <trkpt lat="43.23222" lon="1.98732">
        <ele>203.19999694824</ele>
        <time>2024-03-23T09:40:45Z</time>
      </trkpt>
      <trkpt lat="43.23219" lon="1.98701">
        <ele>205.60000610352</ele>
        <time>2024-03-23T09:41:05Z</time>
      </trkpt>
      <trkpt lat="43.23209" lon="1.98679">
        <ele>207.60000610352</ele>
        <time>2024-03-23T09:41:23Z</time>
      </trkpt>
      <trkpt lat="43.23203" lon="1.98663">
        <ele>209.60000610352</ele>
        <time>2024-03-23T09:41:37Z</time>
      </trkpt>
      <trkpt lat="43.23203" lon="1.98658">
        <ele>209.80000305176</ele>
        <time>2024-03-23T09:41:40Z</time>
      </trkpt>
      <trkpt lat="43.23183" lon="1.98593">
        <ele>208.19999694824</ele>
        <time>2024-03-23T09:42:27Z</time>
      </trkpt>
      <trkpt lat="43.23164" lon="1.98523">
        <ele>208</ele>
        <time>2024-03-23T09:43:14Z</time>
      </trkpt>
      <trkpt lat="43.23156" lon="1.98491">
        <ele>208.39999389648</ele>
        <time>2024-03-23T09:43:33Z</time>
      </trkpt>
      <trkpt lat="43.2314" lon="1.98423">
        <ele>211.19999694824</ele>
        <time>2024-03-23T09:44:21Z</time>
      </trkpt>
      <trkpt lat="43.23143" lon="1.98369">
        <ele>214.60000610352</ele>
        <time>2024-03-23T09:44:58Z</time>
      </trkpt>
      <trkpt lat="43.23149" lon="1.98321">
        <ele>217</ele>
        <time>2024-03-23T09:45:31Z</time>
      </trkpt>
      <trkpt lat="43.23154" lon="1.98285">
        <ele>219</ele>
        <time>2024-03-23T09:45:55Z</time>
      </trkpt>
      <trkpt lat="43.23148" lon="1.98195">
        <ele>222.60000610352</ele>
        <time>2024-03-23T09:46:55Z</time>
      </trkpt>
      <trkpt lat="43.23108" lon="1.98073">
        <ele>224</ele>
        <time>2024-03-23T09:48:19Z</time>
      </trkpt>
      <trkpt lat="43.23078" lon="1.97953">
        <ele>225.39999389648</ele>
        <time>2024-03-23T09:49:36Z</time>
      </trkpt>
      <trkpt lat="43.23067" lon="1.97925">
        <ele>225.80000305176</ele>
        <time>2024-03-23T09:49:56Z</time>
      </trkpt>
      <trkpt lat="43.23084" lon="1.97846">
        <ele>229</ele>
        <time>2024-03-23T09:50:48Z</time>
      </trkpt>
      <trkpt lat="43.23087" lon="1.97836">
        <ele>231.19999694824</ele>
        <time>2024-03-23T09:51:36Z</time>
      </trkpt>
      <trkpt lat="43.23084" lon="1.97838">
        <ele>231</ele>
        <time>2024-03-23T09:54:18Z</time>
      </trkpt>
      <trkpt lat="43.23086" lon="1.97836">
        <ele>230.39999389648</ele>
        <time>2024-03-23T09:58:12Z</time>
      </trkpt>
      <trkpt lat="43.2309" lon="1.97789">
        <ele>234.39999389648</ele>
        <time>2024-03-23T09:59:23Z</time>
      </trkpt>
      <trkpt lat="43.23091" lon="1.97777">
        <ele>238.19999694824</ele>
        <time>2024-03-23T09:59:54Z</time>
      </trkpt>
      <trkpt lat="43.23086" lon="1.97776">
        <ele>238</ele>
        <time>2024-03-23T10:00:15Z</time>
      </trkpt>
      <trkpt lat="43.23042" lon="1.97783">
        <ele>240.19999694824</ele>
        <time>2024-03-23T10:00:58Z</time>
      </trkpt>
      <trkpt lat="43.22998" lon="1.97768">
        <ele>242.19999694824</ele>
        <time>2024-03-23T10:01:37Z</time>
      </trkpt>
      <trkpt lat="43.22996" lon="1.97759">
        <ele>244.39999389648</ele>
        <time>2024-03-23T10:02:04Z</time>
      </trkpt>
      <trkpt lat="43.23011" lon="1.97734">
        <ele>246.60000610352</ele>
        <time>2024-03-23T10:02:31Z</time>
      </trkpt>
      <trkpt lat="43.23027" lon="1.97701">
        <ele>250.19999694824</ele>
        <time>2024-03-23T10:03:05Z</time>
      </trkpt>
      <trkpt lat="43.23036" lon="1.97673">
        <ele>253.19999694824</ele>
        <time>2024-03-23T10:03:32Z</time>
      </trkpt>
      <trkpt lat="43.23043" lon="1.97652">
        <ele>256.20001220703</ele>
        <time>2024-03-23T10:03:54Z</time>
      </trkpt>
      <trkpt lat="43.23022" lon="1.97626">
        <ele>262.20001220703</ele>
        <time>2024-03-23T10:04:41Z</time>
      </trkpt>
      <trkpt lat="43.23" lon="1.97637">
        <ele>264.39999389648</ele>
        <time>2024-03-23T10:05:11Z</time>
      </trkpt>
      <trkpt lat="43.22985" lon="1.97643">
        <ele>264.79998779297</ele>
        <time>2024-03-23T10:05:30Z</time>
      </trkpt>
      <trkpt lat="43.22926" lon="1.97629">
        <ele>265.39999389648</ele>
        <time>2024-03-23T10:06:28Z</time>
      </trkpt>
      <trkpt lat="43.2291" lon="1.97603">
        <ele>267.39999389648</ele>
        <time>2024-03-23T10:07:54Z</time>
      </trkpt>
      <trkpt lat="43.22923" lon="1.97599">
        <ele>270.60000610352</ele>
        <time>2024-03-23T10:08:09Z</time>
      </trkpt>
      <trkpt lat="43.22925" lon="1.97583">
        <ele>273.60000610352</ele>
        <time>2024-03-23T10:08:26Z</time>
      </trkpt>
      <trkpt lat="43.22918" lon="1.97573">
        <ele>276.60000610352</ele>
        <time>2024-03-23T10:08:38Z</time>
      </trkpt>
      <trkpt lat="43.22921" lon="1.97542">
        <ele>282.20001220703</ele>
        <time>2024-03-23T10:09:10Z</time>
      </trkpt>
      <trkpt lat="43.22921" lon="1.97512">
        <ele>285.20001220703</ele>
        <time>2024-03-23T10:09:38Z</time>
      </trkpt>
      <trkpt lat="43.22924" lon="1.97495">
        <ele>285.60000610352</ele>
        <time>2024-03-23T10:10:47Z</time>
      </trkpt>
      <trkpt lat="43.22926" lon="1.97495">
        <ele>285.79998779297</ele>
        <time>2024-03-23T10:12:28Z</time>
      </trkpt>
      <trkpt lat="43.22928" lon="1.97494">
        <ele>285.60000610352</ele>
        <time>2024-03-23T10:12:38Z</time>
      </trkpt>
      <trkpt lat="43.22947" lon="1.9749">
        <ele>288.79998779297</ele>
        <time>2024-03-23T10:12:58Z</time>
      </trkpt>
      <trkpt lat="43.22958" lon="1.97494">
        <ele>293</ele>
        <time>2024-03-23T10:13:18Z</time>
      </trkpt>
      <trkpt lat="43.22972" lon="1.97501">
        <ele>295.60000610352</ele>
        <time>2024-03-23T10:13:49Z</time>
      </trkpt>
      <trkpt lat="43.22988" lon="1.97512">
        <ele>300.79998779297</ele>
        <time>2024-03-23T10:14:24Z</time>
      </trkpt>
      <trkpt lat="43.22989" lon="1.97513">
        <ele>301.39999389648</ele>
        <time>2024-03-23T10:16:03Z</time>
      </trkpt>
      <trkpt lat="43.22985" lon="1.97521">
        <ele>298.39999389648</ele>
        <time>2024-03-23T10:17:29Z</time>
      </trkpt>
      <trkpt lat="43.22981" lon="1.9752">
        <ele>298.20001220703</ele>
        <time>2024-03-23T10:17:41Z</time>
      </trkpt>
      <trkpt lat="43.22971" lon="1.97506">
        <ele>297.79998779297</ele>
        <time>2024-03-23T10:18:45Z</time>
      </trkpt>
      <trkpt lat="43.22976" lon="1.97529">
        <ele>297.39999389648</ele>
        <time>2024-03-23T10:19:52Z</time>
      </trkpt>
      <trkpt lat="43.22997" lon="1.97525">
        <ele>294</ele>
        <time>2024-03-23T10:20:17Z</time>
      </trkpt>
      <trkpt lat="43.23006" lon="1.97517">
        <ele>293.79998779297</ele>
        <time>2024-03-23T10:20:27Z</time>
      </trkpt>
      <trkpt lat="43.23013" lon="1.97506">
        <ele>293.39999389648</ele>
        <time>2024-03-23T10:20:39Z</time>
      </trkpt>
      <trkpt lat="43.23003" lon="1.9748">
        <ele>292.79998779297</ele>
        <time>2024-03-23T10:20:54Z</time>
      </trkpt>
      <trkpt lat="43.22985" lon="1.97464">
        <ele>291.60000610352</ele>
        <time>2024-03-23T10:21:18Z</time>
      </trkpt>
      <trkpt lat="43.22953" lon="1.97474">
        <ele>288.79998779297</ele>
        <time>2024-03-23T10:21:46Z</time>
      </trkpt>
      <trkpt lat="43.22949" lon="1.97458">
        <ele>286.60000610352</ele>
        <time>2024-03-23T10:22:18Z</time>
      </trkpt>
      <trkpt lat="43.22943" lon="1.97453">
        <ele>281.79998779297</ele>
        <time>2024-03-23T10:23:25Z</time>
      </trkpt>
      <trkpt lat="43.22947" lon="1.97432">
        <ele>278.79998779297</ele>
        <time>2024-03-23T10:23:58Z</time>
      </trkpt>
      <trkpt lat="43.22946" lon="1.9744">
        <ele>278</ele>
        <time>2024-03-23T10:24:42Z</time>
      </trkpt>
      <trkpt lat="43.22924" lon="1.97434">
        <ele>276.60000610352</ele>
        <time>2024-03-23T10:26:01Z</time>
      </trkpt>
      <trkpt lat="43.22907" lon="1.97432">
        <ele>273.39999389648</ele>
        <time>2024-03-23T10:26:16Z</time>
      </trkpt>
      <trkpt lat="43.22891" lon="1.97427">
        <ele>269.39999389648</ele>
        <time>2024-03-23T10:26:34Z</time>
      </trkpt>
      <trkpt lat="43.22879" lon="1.97421">
        <ele>266.20001220703</ele>
        <time>2024-03-23T10:26:50Z</time>
      </trkpt>
      <trkpt lat="43.22864" lon="1.97418">
        <ele>263.20001220703</ele>
        <time>2024-03-23T10:27:11Z</time>
      </trkpt>
      <trkpt lat="43.22863" lon="1.97404">
        <ele>260</ele>
        <time>2024-03-23T10:27:28Z</time>
      </trkpt>
      <trkpt lat="43.22867" lon="1.97386">
        <ele>257</ele>
        <time>2024-03-23T10:27:44Z</time>
      </trkpt>
      <trkpt lat="43.22867" lon="1.97385">
        <ele>256.79998779297</ele>
        <time>2024-03-23T10:27:45Z</time>
      </trkpt>
      <trkpt lat="43.22885" lon="1.97365">
        <ele>253.60000610352</ele>
        <time>2024-03-23T10:28:05Z</time>
      </trkpt>
      <trkpt lat="43.22934" lon="1.97351">
        <ele>251.60000610352</ele>
        <time>2024-03-23T10:28:46Z</time>
      </trkpt>
      <trkpt lat="43.22965" lon="1.97321">
        <ele>245.80000305176</ele>
        <time>2024-03-23T10:29:29Z</time>
      </trkpt>
      <trkpt lat="43.22967" lon="1.97304">
        <ele>242.80000305176</ele>
        <time>2024-03-23T10:29:45Z</time>
      </trkpt>
      <trkpt lat="43.22968" lon="1.97296">
        <ele>241.19999694824</ele>
        <time>2024-03-23T10:29:51Z</time>
      </trkpt>
      <trkpt lat="43.22976" lon="1.97279">
        <ele>237.80000305176</ele>
        <time>2024-03-23T10:30:04Z</time>
      </trkpt>
      <trkpt lat="43.22988" lon="1.9728">
        <ele>237.60000610352</ele>
        <time>2024-03-23T10:30:50Z</time>
      </trkpt>
      <trkpt lat="43.22974" lon="1.97264">
        <ele>235.80000305176</ele>
        <time>2024-03-23T10:31:45Z</time>
      </trkpt>
      <trkpt lat="43.22978" lon="1.97229">
        <ele>232.80000305176</ele>
        <time>2024-03-23T10:32:11Z</time>
      </trkpt>
      <trkpt lat="43.22986" lon="1.97196">
        <ele>235</ele>
        <time>2024-03-23T10:32:37Z</time>
      </trkpt>
      <trkpt lat="43.23003" lon="1.97167">
        <ele>240.80000305176</ele>
        <time>2024-03-23T10:33:13Z</time>
      </trkpt>
      <trkpt lat="43.23003" lon="1.97146">
        <ele>243.80000305176</ele>
        <time>2024-03-23T10:33:35Z</time>
      </trkpt>
      <trkpt lat="43.23003" lon="1.97128">
        <ele>247</ele>
        <time>2024-03-23T10:33:53Z</time>
      </trkpt>
      <trkpt lat="43.23003" lon="1.97108">
        <ele>250.19999694824</ele>
        <time>2024-03-23T10:34:12Z</time>
      </trkpt>
      <trkpt lat="43.23005" lon="1.97093">
        <ele>253.19999694824</ele>
        <time>2024-03-23T10:34:29Z</time>
      </trkpt>
      <trkpt lat="43.23007" lon="1.97074">
        <ele>256.60000610352</ele>
        <time>2024-03-23T10:34:49Z</time>
      </trkpt>
      <trkpt lat="43.23008" lon="1.97061">
        <ele>259.60000610352</ele>
        <time>2024-03-23T10:35:07Z</time>
      </trkpt>
      <trkpt lat="43.23006" lon="1.97049">
        <ele>262.79998779297</ele>
        <time>2024-03-23T10:35:23Z</time>
      </trkpt>
      <trkpt lat="43.2301" lon="1.97034">
        <ele>266</ele>
        <time>2024-03-23T10:35:41Z</time>
      </trkpt>
      <trkpt lat="43.23008" lon="1.97013">
        <ele>269</ele>
        <time>2024-03-23T10:36:03Z</time>
      </trkpt>
      <trkpt lat="43.23" lon="1.96991">
        <ele>272</ele>
        <time>2024-03-23T10:36:25Z</time>
      </trkpt>
      <trkpt lat="43.22995" lon="1.96971">
        <ele>275</ele>
        <time>2024-03-23T10:36:46Z</time>
      </trkpt>
      <trkpt lat="43.23018" lon="1.96918">
        <ele>278.20001220703</ele>
        <time>2024-03-23T10:37:33Z</time>
      </trkpt>
      <trkpt lat="43.23043" lon="1.96839">
        <ele>282.20001220703</ele>
        <time>2024-03-23T10:38:50Z</time>
      </trkpt>
      <trkpt lat="43.23052" lon="1.96835">
        <ele>279.60000610352</ele>
        <time>2024-03-23T10:39:49Z</time>
      </trkpt>
      <trkpt lat="43.23055" lon="1.96835">
        <ele>279.60000610352</ele>
        <time>2024-03-23T10:40:10Z</time>
      </trkpt>
      <trkpt lat="43.23091" lon="1.96743">
        <ele>296.39999389648</ele>
        <time>2024-03-23T11:37:11Z</time>
      </trkpt>
      <trkpt lat="43.23077" lon="1.96747">
        <ele>299.39999389648</ele>
        <time>2024-03-23T11:37:47Z</time>
      </trkpt>
      <trkpt lat="43.23051" lon="1.96741">
        <ele>304</ele>
        <time>2024-03-23T11:38:33Z</time>
      </trkpt>
      <trkpt lat="43.23042" lon="1.9675">
        <ele>307</ele>
        <time>2024-03-23T11:38:49Z</time>
      </trkpt>
      <trkpt lat="43.23019" lon="1.96773">
        <ele>310.39999389648</ele>
        <time>2024-03-23T11:39:26Z</time>
      </trkpt>
      <trkpt lat="43.22978" lon="1.96809">
        <ele>315</ele>
        <time>2024-03-23T11:40:23Z</time>
      </trkpt>
      <trkpt lat="43.22956" lon="1.96808">
        <ele>319</ele>
        <time>2024-03-23T11:40:59Z</time>
      </trkpt>
      <trkpt lat="43.22954" lon="1.96799">
        <ele>320</ele>
        <time>2024-03-23T11:41:35Z</time>
      </trkpt>
      <trkpt lat="43.22952" lon="1.96768">
        <ele>322</ele>
        <time>2024-03-23T11:42:10Z</time>
      </trkpt>
      <trkpt lat="43.22949" lon="1.96716">
        <ele>327</ele>
        <time>2024-03-23T11:42:49Z</time>
      </trkpt>
      <trkpt lat="43.22945" lon="1.96701">
        <ele>329.20001220703</ele>
        <time>2024-03-23T11:43:00Z</time>
      </trkpt>
      <trkpt lat="43.22941" lon="1.96686">
        <ele>332.39999389648</ele>
        <time>2024-03-23T11:43:16Z</time>
      </trkpt>
      <trkpt lat="43.2294" lon="1.96682">
        <ele>332.60000610352</ele>
        <time>2024-03-23T11:43:24Z</time>
      </trkpt>
      <trkpt lat="43.22922" lon="1.96663">
        <ele>335.79998779297</ele>
        <time>2024-03-23T11:43:51Z</time>
      </trkpt>
      <trkpt lat="43.22915" lon="1.9665">
        <ele>338.79998779297</ele>
        <time>2024-03-23T11:44:06Z</time>
      </trkpt>
      <trkpt lat="43.229" lon="1.96617">
        <ele>342.79998779297</ele>
        <time>2024-03-23T11:44:39Z</time>
      </trkpt>
      <trkpt lat="43.22877" lon="1.96555">
        <ele>347.79998779297</ele>
        <time>2024-03-23T11:45:32Z</time>
      </trkpt>
      <trkpt lat="43.22852" lon="1.96528">
        <ele>352.20001220703</ele>
        <time>2024-03-23T11:46:12Z</time>
      </trkpt>
      <trkpt lat="43.2283" lon="1.96512">
        <ele>355.39999389648</ele>
        <time>2024-03-23T11:46:44Z</time>
      </trkpt>
      <trkpt lat="43.22808" lon="1.96481">
        <ele>360</ele>
        <time>2024-03-23T11:47:23Z</time>
      </trkpt>
      <trkpt lat="43.22792" lon="1.96464">
        <ele>361.60000610352</ele>
        <time>2024-03-23T11:48:01Z</time>
      </trkpt>
      <trkpt lat="43.22768" lon="1.96444">
        <ele>364.79998779297</ele>
        <time>2024-03-23T11:49:07Z</time>
      </trkpt>
      <trkpt lat="43.22748" lon="1.9641">
        <ele>369.39999389648</ele>
        <time>2024-03-23T11:49:42Z</time>
      </trkpt>
      <trkpt lat="43.22746" lon="1.96406">
        <ele>369.60000610352</ele>
        <time>2024-03-23T11:49:47Z</time>
      </trkpt>
      <trkpt lat="43.22716" lon="1.96384">
        <ele>372.79998779297</ele>
        <time>2024-03-23T11:50:40Z</time>
      </trkpt>
      <trkpt lat="43.22693" lon="1.96368">
        <ele>377.39999389648</ele>
        <time>2024-03-23T11:51:16Z</time>
      </trkpt>
      <trkpt lat="43.22678" lon="1.96365">
        <ele>380.60000610352</ele>
        <time>2024-03-23T11:51:38Z</time>
      </trkpt>
      <trkpt lat="43.22669" lon="1.9638">
        <ele>382.20001220703</ele>
        <time>2024-03-23T11:51:53Z</time>
      </trkpt>
      <trkpt lat="43.22646" lon="1.96428">
        <ele>381.79998779297</ele>
        <time>2024-03-23T11:52:47Z</time>
      </trkpt>
      <trkpt lat="43.22639" lon="1.96427">
        <ele>382.79998779297</ele>
        <time>2024-03-23T11:53:20Z</time>
      </trkpt>
      <trkpt lat="43.22604" lon="1.96446">
        <ele>381.20001220703</ele>
        <time>2024-03-23T11:54:03Z</time>
      </trkpt>
      <trkpt lat="43.22596" lon="1.96459">
        <ele>383.20001220703</ele>
        <time>2024-03-23T11:55:10Z</time>
      </trkpt>
      <trkpt lat="43.22578" lon="1.9647">
        <ele>383.39999389648</ele>
        <time>2024-03-23T11:55:47Z</time>
      </trkpt>
      <trkpt lat="43.2257" lon="1.9647">
        <ele>383.79998779297</ele>
        <time>2024-03-23T11:55:56Z</time>
      </trkpt>
      <trkpt lat="43.22561" lon="1.96494">
        <ele>383.60000610352</ele>
        <time>2024-03-23T11:56:14Z</time>
      </trkpt>
      <trkpt lat="43.22538" lon="1.96589">
        <ele>381.39999389648</ele>
        <time>2024-03-23T11:57:27Z</time>
      </trkpt>
      <trkpt lat="43.2252" lon="1.96638">
        <ele>382.20001220703</ele>
        <time>2024-03-23T11:58:04Z</time>
      </trkpt>
      <trkpt lat="43.22499" lon="1.96695">
        <ele>385.20001220703</ele>
        <time>2024-03-23T11:58:47Z</time>
      </trkpt>
      <trkpt lat="43.22468" lon="1.96722">
        <ele>386.60000610352</ele>
        <time>2024-03-23T11:59:24Z</time>
      </trkpt>
      <trkpt lat="43.2241" lon="1.96715">
        <ele>387.20001220703</ele>
        <time>2024-03-23T12:00:36Z</time>
      </trkpt>
      <trkpt lat="43.22349" lon="1.96705">
        <ele>387.20001220703</ele>
        <time>2024-03-23T12:01:31Z</time>
      </trkpt>
      <trkpt lat="43.2233" lon="1.96707">
        <ele>388.39999389648</ele>
        <time>2024-03-23T12:01:47Z</time>
      </trkpt>
      <trkpt lat="43.223" lon="1.96738">
        <ele>389.39999389648</ele>
        <time>2024-03-23T12:02:19Z</time>
      </trkpt>
      <trkpt lat="43.22231" lon="1.96804">
        <ele>390.39999389648</ele>
        <time>2024-03-23T12:03:34Z</time>
      </trkpt>
      <trkpt lat="43.22207" lon="1.96759">
        <ele>389</ele>
        <time>2024-03-23T12:04:10Z</time>
      </trkpt>
      <trkpt lat="43.222" lon="1.96741">
        <ele>388.79998779297</ele>
        <time>2024-03-23T12:04:24Z</time>
      </trkpt>
      <trkpt lat="43.2216" lon="1.96736">
        <ele>392.60000610352</ele>
        <time>2024-03-23T12:05:01Z</time>
      </trkpt>
      <trkpt lat="43.22138" lon="1.96729">
        <ele>395.20001220703</ele>
        <time>2024-03-23T12:05:24Z</time>
      </trkpt>
      <trkpt lat="43.22123" lon="1.96736">
        <ele>398.39999389648</ele>
        <time>2024-03-23T12:05:41Z</time>
      </trkpt>
      <trkpt lat="43.22107" lon="1.96748">
        <ele>400.60000610352</ele>
        <time>2024-03-23T12:06:01Z</time>
      </trkpt>
      <trkpt lat="43.22072" lon="1.96774">
        <ele>405.60000610352</ele>
        <time>2024-03-23T12:06:39Z</time>
      </trkpt>
      <trkpt lat="43.2204" lon="1.96756">
        <ele>410</ele>
        <time>2024-03-23T12:07:32Z</time>
      </trkpt>
      <trkpt lat="43.22041" lon="1.96751">
        <ele>410.20001220703</ele>
        <time>2024-03-23T12:07:36Z</time>
      </trkpt>
      <trkpt lat="43.22049" lon="1.96702">
        <ele>414.20001220703</ele>
        <time>2024-03-23T12:08:35Z</time>
      </trkpt>
      <trkpt lat="43.22051" lon="1.96706">
        <ele>414.60000610352</ele>
        <time>2024-03-23T12:10:54Z</time>
      </trkpt>
      <trkpt lat="43.22044" lon="1.96752">
        <ele>412.79998779297</ele>
        <time>2024-03-23T12:13:14Z</time>
      </trkpt>
      <trkpt lat="43.22049" lon="1.96794">
        <ele>409</ele>
        <time>2024-03-23T12:13:57Z</time>
      </trkpt>
      <trkpt lat="43.22028" lon="1.96811">
        <ele>408.60000610352</ele>
        <time>2024-03-23T12:14:24Z</time>
      </trkpt>
      <trkpt lat="43.21996" lon="1.96863">
        <ele>407.39999389648</ele>
        <time>2024-03-23T12:15:31Z</time>
      </trkpt>
      <trkpt lat="43.2202" lon="1.9686">
        <ele>404</ele>
        <time>2024-03-23T12:16:02Z</time>
      </trkpt>
      <trkpt lat="43.22049" lon="1.96866">
        <ele>398.39999389648</ele>
        <time>2024-03-23T12:16:35Z</time>
      </trkpt>
      <trkpt lat="43.22087" lon="1.96876">
        <ele>393</ele>
        <time>2024-03-23T12:17:16Z</time>
      </trkpt>
      <trkpt lat="43.22124" lon="1.96878">
        <ele>388.79998779297</ele>
        <time>2024-03-23T12:17:55Z</time>
      </trkpt>
      <trkpt lat="43.22145" lon="1.969">
        <ele>385</ele>
        <time>2024-03-23T12:18:22Z</time>
      </trkpt>
      <trkpt lat="43.22158" lon="1.96916">
        <ele>382</ele>
        <time>2024-03-23T12:18:39Z</time>
      </trkpt>
      <trkpt lat="43.22182" lon="1.96952">
        <ele>379</ele>
        <time>2024-03-23T12:19:11Z</time>
      </trkpt>
      <trkpt lat="43.22187" lon="1.96965">
        <ele>378.20001220703</ele>
        <time>2024-03-23T12:19:21Z</time>
      </trkpt>
      <trkpt lat="43.22195" lon="1.96991">
        <ele>376.60000610352</ele>
        <time>2024-03-23T12:19:42Z</time>
      </trkpt>
      <trkpt lat="43.22194" lon="1.97042">
        <ele>375.20001220703</ele>
        <time>2024-03-23T12:20:22Z</time>
      </trkpt>
      <trkpt lat="43.22192" lon="1.97048">
        <ele>375.60000610352</ele>
        <time>2024-03-23T12:21:38Z</time>
      </trkpt>
      <trkpt lat="43.22196" lon="1.97111">
        <ele>378.20001220703</ele>
        <time>2024-03-23T12:23:00Z</time>
      </trkpt>
      <trkpt lat="43.22188" lon="1.97158">
        <ele>381.20001220703</ele>
        <time>2024-03-23T12:23:36Z</time>
      </trkpt>
      <trkpt lat="43.2219" lon="1.9723">
        <ele>376</ele>
        <time>2024-03-23T12:24:31Z</time>
      </trkpt>
      <trkpt lat="43.22189" lon="1.97244">
        <ele>372.79998779297</ele>
        <time>2024-03-23T12:24:44Z</time>
      </trkpt>
      <trkpt lat="43.22188" lon="1.97255">
        <ele>369.79998779297</ele>
        <time>2024-03-23T12:24:57Z</time>
      </trkpt>
      <trkpt lat="43.22188" lon="1.97282">
        <ele>365</ele>
        <time>2024-03-23T12:25:17Z</time>
      </trkpt>
      <trkpt lat="43.22182" lon="1.97336">
        <ele>360.60000610352</ele>
        <time>2024-03-23T12:25:52Z</time>
      </trkpt>
      <trkpt lat="43.22185" lon="1.9737">
        <ele>360.60000610352</ele>
        <time>2024-03-23T12:26:14Z</time>
      </trkpt>
      <trkpt lat="43.22175" lon="1.97452">
        <ele>361.79998779297</ele>
        <time>2024-03-23T12:27:10Z</time>
      </trkpt>
      <trkpt lat="43.22172" lon="1.97487">
        <ele>359</ele>
        <time>2024-03-23T12:27:40Z</time>
      </trkpt>
      <trkpt lat="43.22169" lon="1.97488">
        <ele>358.60000610352</ele>
        <time>2024-03-23T12:30:19Z</time>
      </trkpt>
      <trkpt lat="43.22142" lon="1.97487">
        <ele>359.39999389648</ele>
        <time>2024-03-23T12:33:51Z</time>
      </trkpt>
      <trkpt lat="43.22072" lon="1.97526">
        <ele>362.60000610352</ele>
        <time>2024-03-23T12:35:11Z</time>
      </trkpt>
      <trkpt lat="43.22021" lon="1.9757">
        <ele>366.79998779297</ele>
        <time>2024-03-23T12:36:19Z</time>
      </trkpt>
      <trkpt lat="43.21986" lon="1.97635">
        <ele>366</ele>
        <time>2024-03-23T12:37:17Z</time>
      </trkpt>
      <trkpt lat="43.21982" lon="1.97658">
        <ele>366</ele>
        <time>2024-03-23T12:37:35Z</time>
      </trkpt>
      <trkpt lat="43.21973" lon="1.97704">
        <ele>367.79998779297</ele>
        <time>2024-03-23T12:38:09Z</time>
      </trkpt>
      <trkpt lat="43.21933" lon="1.97722">
        <ele>369.79998779297</ele>
        <time>2024-03-23T12:38:48Z</time>
      </trkpt>
      <trkpt lat="43.21899" lon="1.9774">
        <ele>373.20001220703</ele>
        <time>2024-03-23T12:39:26Z</time>
      </trkpt>
      <trkpt lat="43.21881" lon="1.97765">
        <ele>377</ele>
        <time>2024-03-23T12:40:04Z</time>
      </trkpt>
      <trkpt lat="43.2188" lon="1.97769">
        <ele>376.79998779297</ele>
        <time>2024-03-23T12:40:20Z</time>
      </trkpt>
      <trkpt lat="43.2188" lon="1.97785">
        <ele>376.79998779297</ele>
        <time>2024-03-23T12:40:36Z</time>
      </trkpt>
      <trkpt lat="43.21889" lon="1.97852">
        <ele>374.20001220703</ele>
        <time>2024-03-23T12:41:19Z</time>
      </trkpt>
      <trkpt lat="43.21899" lon="1.97896">
        <ele>369.60000610352</ele>
        <time>2024-03-23T12:42:01Z</time>
      </trkpt>
      <trkpt lat="43.21891" lon="1.97942">
        <ele>367.20001220703</ele>
        <time>2024-03-23T12:42:38Z</time>
      </trkpt>
      <trkpt lat="43.2189" lon="1.97947">
        <ele>366.60000610352</ele>
        <time>2024-03-23T12:42:42Z</time>
      </trkpt>
      <trkpt lat="43.21877" lon="1.97973">
        <ele>362.20001220703</ele>
        <time>2024-03-23T12:43:05Z</time>
      </trkpt>
      <trkpt lat="43.21868" lon="1.97991">
        <ele>359</ele>
        <time>2024-03-23T12:43:25Z</time>
      </trkpt>
      <trkpt lat="43.21864" lon="1.98015">
        <ele>356</ele>
        <time>2024-03-23T12:43:46Z</time>
      </trkpt>
      <trkpt lat="43.21864" lon="1.98016">
        <ele>355.79998779297</ele>
        <time>2024-03-23T12:43:47Z</time>
      </trkpt>
      <trkpt lat="43.21858" lon="1.98056">
        <ele>354</ele>
        <time>2024-03-23T12:44:13Z</time>
      </trkpt>
      <trkpt lat="43.21875" lon="1.98104">
        <ele>351.39999389648</ele>
        <time>2024-03-23T12:44:52Z</time>
      </trkpt>
      <trkpt lat="43.21872" lon="1.98121">
        <ele>351.39999389648</ele>
        <time>2024-03-23T12:45:07Z</time>
      </trkpt>
      <trkpt lat="43.21834" lon="1.98167">
        <ele>354</ele>
        <time>2024-03-23T12:45:55Z</time>
      </trkpt>
      <trkpt lat="43.2183" lon="1.98168">
        <ele>354</ele>
        <time>2024-03-23T12:46:35Z</time>
      </trkpt>
      <trkpt lat="43.21816" lon="1.98174">
        <ele>353.39999389648</ele>
        <time>2024-03-23T12:46:52Z</time>
      </trkpt>
      <trkpt lat="43.21796" lon="1.98216">
        <ele>354.20001220703</ele>
        <time>2024-03-23T12:47:31Z</time>
      </trkpt>
      <trkpt lat="43.21796" lon="1.98277">
        <ele>355.60000610352</ele>
        <time>2024-03-23T12:48:17Z</time>
      </trkpt>
      <trkpt lat="43.21788" lon="1.98299">
        <ele>358.20001220703</ele>
        <time>2024-03-23T12:48:34Z</time>
      </trkpt>
      <trkpt lat="43.21744" lon="1.98379">
        <ele>356.79998779297</ele>
        <time>2024-03-23T12:49:41Z</time>
      </trkpt>
      <trkpt lat="43.21727" lon="1.98406">
        <ele>358.20001220703</ele>
        <time>2024-03-23T12:50:36Z</time>
      </trkpt>
      <trkpt lat="43.21729" lon="1.9841">
        <ele>359.60000610352</ele>
        <time>2024-03-23T12:51:39Z</time>
      </trkpt>
      <trkpt lat="43.21726" lon="1.98413">
        <ele>360.20001220703</ele>
        <time>2024-03-23T12:52:22Z</time>
      </trkpt>
      <trkpt lat="43.21724" lon="1.98414">
        <ele>360.60000610352</ele>
        <time>2024-03-23T12:55:08Z</time>
      </trkpt>
      <trkpt lat="43.21733" lon="1.98448">
        <ele>359.60000610352</ele>
        <time>2024-03-23T12:56:37Z</time>
      </trkpt>
      <trkpt lat="43.21746" lon="1.98471">
        <ele>357.39999389648</ele>
        <time>2024-03-23T12:56:59Z</time>
      </trkpt>
      <trkpt lat="43.21753" lon="1.98511">
        <ele>353.79998779297</ele>
        <time>2024-03-23T12:57:31Z</time>
      </trkpt>
      <trkpt lat="43.2175" lon="1.98532">
        <ele>350.60000610352</ele>
        <time>2024-03-23T12:57:49Z</time>
      </trkpt>
      <trkpt lat="43.21748" lon="1.98548">
        <ele>347.60000610352</ele>
        <time>2024-03-23T12:58:02Z</time>
      </trkpt>
      <trkpt lat="43.21751" lon="1.98567">
        <ele>344.39999389648</ele>
        <time>2024-03-23T12:58:19Z</time>
      </trkpt>
      <trkpt lat="43.21762" lon="1.98593">
        <ele>340.79998779297</ele>
        <time>2024-03-23T12:58:42Z</time>
      </trkpt>
      <trkpt lat="43.21775" lon="1.98623">
        <ele>337.20001220703</ele>
        <time>2024-03-23T12:59:07Z</time>
      </trkpt>
      <trkpt lat="43.21785" lon="1.98641">
        <ele>334</ele>
        <time>2024-03-23T12:59:24Z</time>
      </trkpt>
      <trkpt lat="43.21804" lon="1.98678">
        <ele>330.20001220703</ele>
        <time>2024-03-23T13:00:00Z</time>
      </trkpt>
      <trkpt lat="43.21813" lon="1.98707">
        <ele>327.20001220703</ele>
        <time>2024-03-23T13:00:22Z</time>
      </trkpt>
      <trkpt lat="43.21808" lon="1.98756">
        <ele>323.39999389648</ele>
        <time>2024-03-23T13:00:53Z</time>
      </trkpt>
      <trkpt lat="43.21801" lon="1.98807">
        <ele>319.60000610352</ele>
        <time>2024-03-23T13:01:26Z</time>
      </trkpt>
      <trkpt lat="43.21799" lon="1.98849">
        <ele>315.60000610352</ele>
        <time>2024-03-23T13:01:58Z</time>
      </trkpt>
      <trkpt lat="43.21793" lon="1.98888">
        <ele>310.39999389648</ele>
        <time>2024-03-23T13:02:27Z</time>
      </trkpt>
      <trkpt lat="43.21778" lon="1.98938">
        <ele>305.60000610352</ele>
        <time>2024-03-23T13:03:03Z</time>
      </trkpt>
      <trkpt lat="43.21769" lon="1.98966">
        <ele>302.20001220703</ele>
        <time>2024-03-23T13:03:24Z</time>
      </trkpt>
      <trkpt lat="43.21766" lon="1.98986">
        <ele>299.39999389648</ele>
        <time>2024-03-23T13:03:42Z</time>
      </trkpt>
      <trkpt lat="43.21763" lon="1.99024">
        <ele>295.39999389648</ele>
        <time>2024-03-23T13:04:13Z</time>
      </trkpt>
      <trkpt lat="43.21763" lon="1.99028">
        <ele>295.20001220703</ele>
        <time>2024-03-23T13:04:16Z</time>
      </trkpt>
      <trkpt lat="43.21766" lon="1.99094">
        <ele>289.79998779297</ele>
        <time>2024-03-23T13:04:57Z</time>
      </trkpt>
      <trkpt lat="43.21762" lon="1.99162">
        <ele>285.79998779297</ele>
        <time>2024-03-23T13:05:39Z</time>
      </trkpt>
      <trkpt lat="43.21732" lon="1.99268">
        <ele>284</ele>
        <time>2024-03-23T13:06:51Z</time>
      </trkpt>
      <trkpt lat="43.21701" lon="1.99331">
        <ele>280.60000610352</ele>
        <time>2024-03-23T13:07:39Z</time>
      </trkpt>
      <trkpt lat="43.21668" lon="1.99405">
        <ele>275</ele>
        <time>2024-03-23T13:08:38Z</time>
      </trkpt>
      <trkpt lat="43.21659" lon="1.9943">
        <ele>272</ele>
        <time>2024-03-23T13:08:57Z</time>
      </trkpt>
      <trkpt lat="43.21637" lon="1.99492">
        <ele>268.60000610352</ele>
        <time>2024-03-23T13:09:42Z</time>
      </trkpt>
      <trkpt lat="43.21631" lon="1.99505">
        <ele>266</ele>
        <time>2024-03-23T13:10:00Z</time>
      </trkpt>
      <trkpt lat="43.21627" lon="1.99517">
        <ele>266</ele>
        <time>2024-03-23T13:11:26Z</time>
      </trkpt>
      <trkpt lat="43.21616" lon="1.99555">
        <ele>266.60000610352</ele>
        <time>2024-03-23T13:13:48Z</time>
      </trkpt>
      <trkpt lat="43.21589" lon="1.99606">
        <ele>266.20001220703</ele>
        <time>2024-03-23T13:15:11Z</time>
      </trkpt>
      <trkpt lat="43.21578" lon="1.99624">
        <ele>266.60000610352</ele>
        <time>2024-03-23T13:15:28Z</time>
      </trkpt>
      <trkpt lat="43.21526" lon="1.99652">
        <ele>263.60000610352</ele>
        <time>2024-03-23T13:16:17Z</time>
      </trkpt>
      <trkpt lat="43.21507" lon="1.99673">
        <ele>261.20001220703</ele>
        <time>2024-03-23T13:16:39Z</time>
      </trkpt>
      <trkpt lat="43.21494" lon="1.99696">
        <ele>258.60000610352</ele>
        <time>2024-03-23T13:16:58Z</time>
      </trkpt>
      <trkpt lat="43.21482" lon="1.99763">
        <ele>255.19999694824</ele>
        <time>2024-03-23T13:17:59Z</time>
      </trkpt>
      <trkpt lat="43.21487" lon="1.99785">
        <ele>255.80000305176</ele>
        <time>2024-03-23T13:19:03Z</time>
      </trkpt>
      <trkpt lat="43.21493" lon="1.99821">
        <ele>259.39999389648</ele>
        <time>2024-03-23T13:19:32Z</time>
      </trkpt>
      <trkpt lat="43.21508" lon="1.99858">
        <ele>263.20001220703</ele>
        <time>2024-03-23T13:20:01Z</time>
      </trkpt>
      <trkpt lat="43.21523" lon="1.99883">
        <ele>264.39999389648</ele>
        <time>2024-03-23T13:20:40Z</time>
      </trkpt>
      <trkpt lat="43.21528" lon="1.9989">
        <ele>264.79998779297</ele>
        <time>2024-03-23T13:21:18Z</time>
      </trkpt>
      <trkpt lat="43.21539" lon="1.99957">
        <ele>265.60000610352</ele>
        <time>2024-03-23T13:21:56Z</time>
      </trkpt>
      <trkpt lat="43.21531" lon="2.0001">
        <ele>263.20001220703</ele>
        <time>2024-03-23T13:22:25Z</time>
      </trkpt>
      <trkpt lat="43.21512" lon="2.00068">
        <ele>259.60000610352</ele>
        <time>2024-03-23T13:23:01Z</time>
      </trkpt>
      <trkpt lat="43.21508" lon="2.00103">
        <ele>260</ele>
        <time>2024-03-23T13:23:18Z</time>
      </trkpt>
      <trkpt lat="43.21503" lon="2.00187">
        <ele>261.39999389648</ele>
        <time>2024-03-23T13:24:13Z</time>
      </trkpt>
      <trkpt lat="43.21516" lon="2.00183">
        <ele>259.39999389648</ele>
        <time>2024-03-23T13:24:38Z</time>
      </trkpt>
      <trkpt lat="43.21533" lon="2.00219">
        <ele>256</ele>
        <time>2024-03-23T13:25:19Z</time>
      </trkpt>
      <trkpt lat="43.21536" lon="2.00244">
        <ele>252.80000305176</ele>
        <time>2024-03-23T13:26:08Z</time>
      </trkpt>
      <trkpt lat="43.21544" lon="2.00272">
        <ele>248.80000305176</ele>
        <time>2024-03-23T13:27:04Z</time>
      </trkpt>
      <trkpt lat="43.21542" lon="2.00287">
        <ele>245.60000610352</ele>
        <time>2024-03-23T13:27:16Z</time>
      </trkpt>
      <trkpt lat="43.21541" lon="2.0031">
        <ele>242.60000610352</ele>
        <time>2024-03-23T13:27:33Z</time>
      </trkpt>
      <trkpt lat="43.21529" lon="2.00334">
        <ele>241.39999389648</ele>
        <time>2024-03-23T13:27:55Z</time>
      </trkpt>
      <trkpt lat="43.21521" lon="2.00363">
        <ele>238.19999694824</ele>
        <time>2024-03-23T13:28:17Z</time>
      </trkpt>
      <trkpt lat="43.21542" lon="2.00358">
        <ele>235</ele>
        <time>2024-03-23T13:28:50Z</time>
      </trkpt>
      <trkpt lat="43.21554" lon="2.00378">
        <ele>236.60000610352</ele>
        <time>2024-03-23T13:29:11Z</time>
      </trkpt>
      <trkpt lat="43.21562" lon="2.00425">
        <ele>237.39999389648</ele>
        <time>2024-03-23T13:29:42Z</time>
      </trkpt>
      <trkpt lat="43.21552" lon="2.00457">
        <ele>235.19999694824</ele>
        <time>2024-03-23T13:30:12Z</time>
      </trkpt>
      <trkpt lat="43.2155" lon="2.00497">
        <ele>234.39999389648</ele>
        <time>2024-03-23T13:30:42Z</time>
      </trkpt>
      <trkpt lat="43.2154" lon="2.00566">
        <ele>232.60000610352</ele>
        <time>2024-03-23T13:31:37Z</time>
      </trkpt>
      <trkpt lat="43.2153" lon="2.00566">
        <ele>232.60000610352</ele>
        <time>2024-03-23T13:31:44Z</time>
      </trkpt>
      <trkpt lat="43.21484" lon="2.00536">
        <ele>235.80000305176</ele>
        <time>2024-03-23T13:32:29Z</time>
      </trkpt>
      <trkpt lat="43.21443" lon="2.0053">
        <ele>240.39999389648</ele>
        <time>2024-03-23T13:33:07Z</time>
      </trkpt>
      <trkpt lat="43.21422" lon="2.00523">
        <ele>243</ele>
        <time>2024-03-23T13:33:29Z</time>
      </trkpt>
      <trkpt lat="43.2139" lon="2.00518">
        <ele>246</ele>
        <time>2024-03-23T13:34:01Z</time>
      </trkpt>
      <trkpt lat="43.21373" lon="2.00537">
        <ele>248.39999389648</ele>
        <time>2024-03-23T13:34:21Z</time>
      </trkpt>
      <trkpt lat="43.21334" lon="2.00579">
        <ele>251.80000305176</ele>
        <time>2024-03-23T13:35:06Z</time>
      </trkpt>
      <trkpt lat="43.2129" lon="2.00613">
        <ele>255.80000305176</ele>
        <time>2024-03-23T13:35:59Z</time>
      </trkpt>
      <trkpt lat="43.21247" lon="2.00674">
        <ele>259.60000610352</ele>
        <time>2024-03-23T13:37:08Z</time>
      </trkpt>
      <trkpt lat="43.21223" lon="2.007">
        <ele>264</ele>
        <time>2024-03-23T13:37:41Z</time>
      </trkpt>
      <trkpt lat="43.2121" lon="2.00715">
        <ele>267</ele>
        <time>2024-03-23T13:37:58Z</time>
      </trkpt>
      <trkpt lat="43.21182" lon="2.00748">
        <ele>270</ele>
        <time>2024-03-23T13:38:34Z</time>
      </trkpt>
      <trkpt lat="43.21151" lon="2.0079">
        <ele>273.79998779297</ele>
        <time>2024-03-23T13:39:20Z</time>
      </trkpt>
      <trkpt lat="43.21121" lon="2.00824">
        <ele>276</ele>
        <time>2024-03-23T13:40:02Z</time>
      </trkpt>
      <trkpt lat="43.21094" lon="2.0088">
        <ele>274.20001220703</ele>
        <time>2024-03-23T13:41:01Z</time>
      </trkpt>
      <trkpt lat="43.21094" lon="2.00879">
        <ele>274.60000610352</ele>
        <time>2024-03-23T13:41:46Z</time>
      </trkpt>
      <trkpt lat="43.21094" lon="2.00898">
        <ele>274</ele>
        <time>2024-03-23T13:43:39Z</time>
      </trkpt>
      <trkpt lat="43.21132" lon="2.00947">
        <ele>271.39999389648</ele>
        <time>2024-03-23T13:44:36Z</time>
      </trkpt>
      <trkpt lat="43.21144" lon="2.00966">
        <ele>270.39999389648</ele>
        <time>2024-03-23T13:44:54Z</time>
      </trkpt>
      <trkpt lat="43.21181" lon="2.01068">
        <ele>266.79998779297</ele>
        <time>2024-03-23T13:46:08Z</time>
      </trkpt>
      <trkpt lat="43.21186" lon="2.01082">
        <ele>266</ele>
        <time>2024-03-23T13:46:19Z</time>
      </trkpt>
      <trkpt lat="43.21191" lon="2.01098">
        <ele>265.39999389648</ele>
        <time>2024-03-23T13:46:31Z</time>
      </trkpt>
      <trkpt lat="43.21211" lon="2.0115">
        <ele>263.39999389648</ele>
        <time>2024-03-23T13:47:08Z</time>
      </trkpt>
      <trkpt lat="43.2125" lon="2.01162">
        <ele>260.39999389648</ele>
        <time>2024-03-23T13:47:53Z</time>
      </trkpt>
      <trkpt lat="43.21289" lon="2.01153">
        <ele>256.60000610352</ele>
        <time>2024-03-23T13:48:28Z</time>
      </trkpt>
      <trkpt lat="43.21329" lon="2.01145">
        <ele>253.60000610352</ele>
        <time>2024-03-23T13:49:03Z</time>
      </trkpt>
      <trkpt lat="43.21331" lon="2.01145">
        <ele>253.39999389648</ele>
        <time>2024-03-23T13:49:05Z</time>
      </trkpt>
      <trkpt lat="43.21391" lon="2.01138">
        <ele>252.60000610352</ele>
        <time>2024-03-23T13:49:58Z</time>
      </trkpt>
      <trkpt lat="43.21446" lon="2.01179">
        <ele>249</ele>
        <time>2024-03-23T13:50:59Z</time>
      </trkpt>
      <trkpt lat="43.21491" lon="2.01216">
        <ele>244.19999694824</ele>
        <time>2024-03-23T13:51:44Z</time>
      </trkpt>
      <trkpt lat="43.21495" lon="2.0123">
        <ele>243.60000610352</ele>
        <time>2024-03-23T13:52:28Z</time>
      </trkpt>
      <trkpt lat="43.21491" lon="2.01225">
        <ele>243.19999694824</ele>
        <time>2024-03-23T13:54:22Z</time>
      </trkpt>
      <trkpt lat="43.2147" lon="2.01254">
        <ele>240.80000305176</ele>
        <time>2024-03-23T13:55:30Z</time>
      </trkpt>
      <trkpt lat="43.21487" lon="2.01294">
        <ele>240</ele>
        <time>2024-03-23T13:55:54Z</time>
      </trkpt>
      <trkpt lat="43.21501" lon="2.0133">
        <ele>238.39999389648</ele>
        <time>2024-03-23T13:56:20Z</time>
      </trkpt>
      <trkpt lat="43.21502" lon="2.01361">
        <ele>238.19999694824</ele>
        <time>2024-03-23T13:56:37Z</time>
      </trkpt>
      <trkpt lat="43.21515" lon="2.01454">
        <ele>237.60000610352</ele>
        <time>2024-03-23T13:57:35Z</time>
      </trkpt>
      <trkpt lat="43.21524" lon="2.01476">
        <ele>236</ele>
        <time>2024-03-23T13:57:52Z</time>
      </trkpt>
      <trkpt lat="43.21563" lon="2.01587">
        <ele>233.80000305176</ele>
        <time>2024-03-23T13:58:57Z</time>
      </trkpt>
      <trkpt lat="43.21583" lon="2.01658">
        <ele>230.39999389648</ele>
        <time>2024-03-23T13:59:47Z</time>
      </trkpt>
      <trkpt lat="43.21595" lon="2.01689">
        <ele>224.60000610352</ele>
        <time>2024-03-23T14:00:10Z</time>
      </trkpt>
      <trkpt lat="43.21602" lon="2.01713">
        <ele>222</ele>
        <time>2024-03-23T14:00:23Z</time>
      </trkpt>
      <trkpt lat="43.21592" lon="2.0176">
        <ele>219.39999389648</ele>
        <time>2024-03-23T14:00:52Z</time>
      </trkpt>
      <trkpt lat="43.2159" lon="2.01764">
        <ele>219.19999694824</ele>
        <time>2024-03-23T14:00:54Z</time>
      </trkpt>
      <trkpt lat="43.21576" lon="2.01791">
        <ele>219.60000610352</ele>
        <time>2024-03-23T14:01:17Z</time>
      </trkpt>
      <trkpt lat="43.21568" lon="2.01797">
        <ele>219.60000610352</ele>
        <time>2024-03-23T14:01:26Z</time>
      </trkpt>
      <trkpt lat="43.21531" lon="2.01812">
        <ele>220.19999694824</ele>
        <time>2024-03-23T14:01:58Z</time>
      </trkpt>
      <trkpt lat="43.21511" lon="2.01825">
        <ele>221.60000610352</ele>
        <time>2024-03-23T14:02:14Z</time>
      </trkpt>
      <trkpt lat="43.21479" lon="2.01854">
        <ele>225.19999694824</ele>
        <time>2024-03-23T14:02:53Z</time>
      </trkpt>
      <trkpt lat="43.21431" lon="2.01868">
        <ele>226.39999389648</ele>
        <time>2024-03-23T14:03:21Z</time>
      </trkpt>
      <trkpt lat="43.21398" lon="2.01865">
        <ele>228.19999694824</ele>
        <time>2024-03-23T14:03:43Z</time>
      </trkpt>
      <trkpt lat="43.21367" lon="2.01856">
        <ele>231</ele>
        <time>2024-03-23T14:04:12Z</time>
      </trkpt>
      <trkpt lat="43.21361" lon="2.01858">
        <ele>231.19999694824</ele>
        <time>2024-03-23T14:04:23Z</time>
      </trkpt>
      <trkpt lat="43.2136" lon="2.01852">
        <ele>232.60000610352</ele>
        <time>2024-03-23T14:04:35Z</time>
      </trkpt>
      <trkpt lat="43.21354" lon="2.01843">
        <ele>232.60000610352</ele>
        <time>2024-03-23T14:04:43Z</time>
      </trkpt>
      <trkpt lat="43.2133" lon="2.01823">
        <ele>233.60000610352</ele>
        <time>2024-03-23T14:05:08Z</time>
      </trkpt>
      <trkpt lat="43.21318" lon="2.01818">
        <ele>234.60000610352</ele>
        <time>2024-03-23T14:05:31Z</time>
      </trkpt>
      <trkpt lat="43.21272" lon="2.01813">
        <ele>237.80000305176</ele>
        <time>2024-03-23T14:06:02Z</time>
      </trkpt>
      <trkpt lat="43.21244" lon="2.01822">
        <ele>238.80000305176</ele>
        <time>2024-03-23T14:06:23Z</time>
      </trkpt>
      <trkpt lat="43.21216" lon="2.01888">
        <ele>243.39999389648</ele>
        <time>2024-03-23T14:07:14Z</time>
      </trkpt>
      <trkpt lat="43.21206" lon="2.01972">
        <ele>247.80000305176</ele>
        <time>2024-03-23T14:08:11Z</time>
      </trkpt>
      <trkpt lat="43.21192" lon="2.02018">
        <ele>252</ele>
        <time>2024-03-23T14:08:42Z</time>
      </trkpt>
      <trkpt lat="43.21158" lon="2.02071">
        <ele>257.60000610352</ele>
        <time>2024-03-23T14:09:35Z</time>
      </trkpt>
      <trkpt lat="43.21148" lon="2.02068">
        <ele>260.20001220703</ele>
        <time>2024-03-23T14:10:57Z</time>
      </trkpt>
      <trkpt lat="43.21151" lon="2.02083">
        <ele>259.79998779297</ele>
        <time>2024-03-23T14:13:29Z</time>
      </trkpt>
      <trkpt lat="43.21147" lon="2.02046">
        <ele>261.60000610352</ele>
        <time>2024-03-23T14:14:08Z</time>
      </trkpt>
      <trkpt lat="43.21144" lon="2.01988">
        <ele>265.79998779297</ele>
        <time>2024-03-23T14:14:58Z</time>
      </trkpt>
      <trkpt lat="43.2113" lon="2.01951">
        <ele>269.79998779297</ele>
        <time>2024-03-23T14:15:43Z</time>
      </trkpt>
      <trkpt lat="43.21115" lon="2.01961">
        <ele>273</ele>
        <time>2024-03-23T14:16:07Z</time>
      </trkpt>
      <trkpt lat="43.211" lon="2.01967">
        <ele>276</ele>
        <time>2024-03-23T14:16:34Z</time>
      </trkpt>
      <trkpt lat="43.21086" lon="2.01973">
        <ele>279</ele>
        <time>2024-03-23T14:16:55Z</time>
      </trkpt>
      <trkpt lat="43.21064" lon="2.01988">
        <ele>284.20001220703</ele>
        <time>2024-03-23T14:17:32Z</time>
      </trkpt>
      <trkpt lat="43.21043" lon="2.02033">
        <ele>290</ele>
        <time>2024-03-23T14:18:25Z</time>
      </trkpt>
      <trkpt lat="43.21035" lon="2.0205">
        <ele>293.20001220703</ele>
        <time>2024-03-23T14:18:48Z</time>
      </trkpt>
      <trkpt lat="43.21024" lon="2.0206">
        <ele>296.20001220703</ele>
        <time>2024-03-23T14:19:14Z</time>
      </trkpt>
      <trkpt lat="43.2101" lon="2.02082">
        <ele>299.39999389648</ele>
        <time>2024-03-23T14:19:42Z</time>
      </trkpt>
      <trkpt lat="43.21002" lon="2.02094">
        <ele>302.39999389648</ele>
        <time>2024-03-23T14:19:58Z</time>
      </trkpt>
      <trkpt lat="43.20979" lon="2.02114">
        <ele>304.60000610352</ele>
        <time>2024-03-23T14:20:27Z</time>
      </trkpt>
      <trkpt lat="43.20908" lon="2.02146">
        <ele>307.39999389648</ele>
        <time>2024-03-23T14:21:37Z</time>
      </trkpt>
      <trkpt lat="43.20885" lon="2.02116">
        <ele>307</ele>
        <time>2024-03-23T14:22:06Z</time>
      </trkpt>
      <trkpt lat="43.20885" lon="2.02114">
        <ele>307</ele>
        <time>2024-03-23T14:22:07Z</time>
      </trkpt>
      <trkpt lat="43.20877" lon="2.02088">
        <ele>306.60000610352</ele>
        <time>2024-03-23T14:22:37Z</time>
      </trkpt>
      <trkpt lat="43.20864" lon="2.02104">
        <ele>310.39999389648</ele>
        <time>2024-03-23T14:24:03Z</time>
      </trkpt>
      <trkpt lat="43.20874" lon="2.02157">
        <ele>314.39999389648</ele>
        <time>2024-03-23T14:24:53Z</time>
      </trkpt>
      <trkpt lat="43.20887" lon="2.02191">
        <ele>319.20001220703</ele>
        <time>2024-03-23T14:25:38Z</time>
      </trkpt>
      <trkpt lat="43.20884" lon="2.02199">
        <ele>321.20001220703</ele>
        <time>2024-03-23T14:26:29Z</time>
      </trkpt>
      <trkpt lat="43.20888" lon="2.02202">
        <ele>321.79998779297</ele>
        <time>2024-03-23T14:29:09Z</time>
      </trkpt>
      <trkpt lat="43.20883" lon="2.0225">
        <ele>323.79998779297</ele>
        <time>2024-03-23T14:29:39Z</time>
      </trkpt>
      <trkpt lat="43.20856" lon="2.02342">
        <ele>326.60000610352</ele>
        <time>2024-03-23T14:30:35Z</time>
      </trkpt>
      <trkpt lat="43.20814" lon="2.02455">
        <ele>330.39999389648</ele>
        <time>2024-03-23T14:31:46Z</time>
      </trkpt>
      <trkpt lat="43.2076" lon="2.02566">
        <ele>334</ele>
        <time>2024-03-23T14:33:02Z</time>
      </trkpt>
      <trkpt lat="43.20757" lon="2.02577">
        <ele>334</ele>
        <time>2024-03-23T14:33:13Z</time>
      </trkpt>
      <trkpt lat="43.20734" lon="2.02624">
        <ele>334.20001220703</ele>
        <time>2024-03-23T14:33:49Z</time>
      </trkpt>
      <trkpt lat="43.20689" lon="2.02657">
        <ele>336.60000610352</ele>
        <time>2024-03-23T14:34:30Z</time>
      </trkpt>
      <trkpt lat="43.20675" lon="2.02663">
        <ele>336.79998779297</ele>
        <time>2024-03-23T14:35:46Z</time>
      </trkpt>
      <trkpt lat="43.20665" lon="2.02694">
        <ele>339.39999389648</ele>
        <time>2024-03-23T14:36:29Z</time>
      </trkpt>
      <trkpt lat="43.20667" lon="2.02709">
        <ele>340.60000610352</ele>
        <time>2024-03-23T14:37:55Z</time>
      </trkpt>
      <trkpt lat="43.20668" lon="2.02709">
        <ele>340.60000610352</ele>
        <time>2024-03-23T14:38:58Z</time>
      </trkpt>
      <trkpt lat="43.2067" lon="2.02724">
        <ele>340.20001220703</ele>
        <time>2024-03-23T14:39:26Z</time>
      </trkpt>
      <trkpt lat="43.20672" lon="2.0272">
        <ele>339.79998779297</ele>
        <time>2024-03-23T14:41:16Z</time>
      </trkpt>
      <trkpt lat="43.20688" lon="2.02684">
        <ele>339.20001220703</ele>
        <time>2024-03-23T14:42:11Z</time>
      </trkpt>
      <trkpt lat="43.20691" lon="2.02672">
        <ele>338</ele>
        <time>2024-03-23T14:42:54Z</time>
      </trkpt>
      <trkpt lat="43.20693" lon="2.02663">
        <ele>338.20001220703</ele>
        <time>2024-03-23T14:46:00Z</time>
      </trkpt>
      <trkpt lat="43.20702" lon="2.02679">
        <ele>337</ele>
        <time>2024-03-23T14:46:45Z</time>
      </trkpt>
      <trkpt lat="43.20711" lon="2.0271">
        <ele>332.60000610352</ele>
        <time>2024-03-23T14:47:37Z</time>
      </trkpt>
      <trkpt lat="43.2072" lon="2.02719">
        <ele>329.60000610352</ele>
        <time>2024-03-23T14:47:52Z</time>
      </trkpt>
      <trkpt lat="43.2073" lon="2.02732">
        <ele>325.79998779297</ele>
        <time>2024-03-23T14:48:29Z</time>
      </trkpt>
      <trkpt lat="43.20746" lon="2.02756">
        <ele>321.20001220703</ele>
        <time>2024-03-23T14:48:53Z</time>
      </trkpt>
      <trkpt lat="43.20769" lon="2.02797">
        <ele>316.79998779297</ele>
        <time>2024-03-23T14:49:34Z</time>
      </trkpt>
      <trkpt lat="43.20795" lon="2.0281">
        <ele>311.20001220703</ele>
        <time>2024-03-23T14:50:12Z</time>
      </trkpt>
      <trkpt lat="43.20804" lon="2.02796">
        <ele>308.20001220703</ele>
        <time>2024-03-23T14:50:26Z</time>
      </trkpt>
      <trkpt lat="43.20815" lon="2.02777">
        <ele>305</ele>
        <time>2024-03-23T14:50:43Z</time>
      </trkpt>
      <trkpt lat="43.20827" lon="2.02758">
        <ele>302</ele>
        <time>2024-03-23T14:51:03Z</time>
      </trkpt>
      <trkpt lat="43.2083" lon="2.02755">
        <ele>301.60000610352</ele>
        <time>2024-03-23T14:51:07Z</time>
      </trkpt>
      <trkpt lat="43.20857" lon="2.02737">
        <ele>297.79998779297</ele>
        <time>2024-03-23T14:51:35Z</time>
      </trkpt>
      <trkpt lat="43.20869" lon="2.0273">
        <ele>294.39999389648</ele>
        <time>2024-03-23T14:51:48Z</time>
      </trkpt>
      <trkpt lat="43.20904" lon="2.02717">
        <ele>290.60000610352</ele>
        <time>2024-03-23T14:52:24Z</time>
      </trkpt>
      <trkpt lat="43.20928" lon="2.02701">
        <ele>285.20001220703</ele>
        <time>2024-03-23T14:52:54Z</time>
      </trkpt>
      <trkpt lat="43.20947" lon="2.02693">
        <ele>282.20001220703</ele>
        <time>2024-03-23T14:53:15Z</time>
      </trkpt>
      <trkpt lat="43.2098" lon="2.02671">
        <ele>279.60000610352</ele>
        <time>2024-03-23T14:53:48Z</time>
      </trkpt>
      <trkpt lat="43.21027" lon="2.02645">
        <ele>279</ele>
        <time>2024-03-23T14:54:33Z</time>
      </trkpt>
      <trkpt lat="43.21091" lon="2.02626">
        <ele>276.39999389648</ele>
        <time>2024-03-23T14:55:35Z</time>
      </trkpt>
      <trkpt lat="43.21103" lon="2.02647">
        <ele>274</ele>
        <time>2024-03-23T14:55:56Z</time>
      </trkpt>
      <trkpt lat="43.2111" lon="2.0267">
        <ele>270.60000610352</ele>
        <time>2024-03-23T14:56:16Z</time>
      </trkpt>
      <trkpt lat="43.21114" lon="2.027">
        <ele>267</ele>
        <time>2024-03-23T14:56:36Z</time>
      </trkpt>
      <trkpt lat="43.21123" lon="2.02723">
        <ele>263.79998779297</ele>
        <time>2024-03-23T14:56:54Z</time>
      </trkpt>
      <trkpt lat="43.21133" lon="2.02738">
        <ele>260.79998779297</ele>
        <time>2024-03-23T14:57:18Z</time>
      </trkpt>
      <trkpt lat="43.21134" lon="2.02739">
        <ele>260.60000610352</ele>
        <time>2024-03-23T14:57:19Z</time>
      </trkpt>
      <trkpt lat="43.21152" lon="2.02781">
        <ele>256</ele>
        <time>2024-03-23T14:57:54Z</time>
      </trkpt>
      <trkpt lat="43.21153" lon="2.02841">
        <ele>251.19999694824</ele>
        <time>2024-03-23T14:58:39Z</time>
      </trkpt>
      <trkpt lat="43.21163" lon="2.02925">
        <ele>247.19999694824</ele>
        <time>2024-03-23T14:59:35Z</time>
      </trkpt>
      <trkpt lat="43.21152" lon="2.02991">
        <ele>245.80000305176</ele>
        <time>2024-03-23T15:00:20Z</time>
      </trkpt>
      <trkpt lat="43.21152" lon="2.03055">
        <ele>245.80000305176</ele>
        <time>2024-03-23T15:01:02Z</time>
      </trkpt>
      <trkpt lat="43.21161" lon="2.0308">
        <ele>245.39999389648</ele>
        <time>2024-03-23T15:01:21Z</time>
      </trkpt>
      <trkpt lat="43.21195" lon="2.03112">
        <ele>241.80000305176</ele>
        <time>2024-03-23T15:01:58Z</time>
      </trkpt>
      <trkpt lat="43.21227" lon="2.03166">
        <ele>240.39999389648</ele>
        <time>2024-03-23T15:02:43Z</time>
      </trkpt>
      <trkpt lat="43.21251" lon="2.03208">
        <ele>239.39999389648</ele>
        <time>2024-03-23T15:03:24Z</time>
      </trkpt>
      <trkpt lat="43.2126" lon="2.03201">
        <ele>240</ele>
        <time>2024-03-23T15:03:34Z</time>
      </trkpt>
      <trkpt lat="43.21286" lon="2.03172">
        <ele>241.60000610352</ele>
        <time>2024-03-23T15:04:04Z</time>
      </trkpt>
      <trkpt lat="43.21312" lon="2.03144">
        <ele>239.19999694824</ele>
        <time>2024-03-23T15:04:34Z</time>
      </trkpt>
      <trkpt lat="43.21353" lon="2.03144">
        <ele>236</ele>
        <time>2024-03-23T15:05:14Z</time>
      </trkpt>
      <trkpt lat="43.21373" lon="2.03156">
        <ele>234.19999694824</ele>
        <time>2024-03-23T15:05:33Z</time>
      </trkpt>
      <trkpt lat="43.21414" lon="2.03178">
        <ele>229</ele>
        <time>2024-03-23T15:06:12Z</time>
      </trkpt>
      <trkpt lat="43.21435" lon="2.03191">
        <ele>226</ele>
        <time>2024-03-23T15:06:33Z</time>
      </trkpt>
      <trkpt lat="43.21478" lon="2.0321">
        <ele>222.39999389648</ele>
        <time>2024-03-23T15:07:12Z</time>
      </trkpt>
      <trkpt lat="43.21515" lon="2.0322">
        <ele>218.60000610352</ele>
        <time>2024-03-23T15:07:48Z</time>
      </trkpt>
      <trkpt lat="43.21516" lon="2.0322">
        <ele>218.39999389648</ele>
        <time>2024-03-23T15:07:49Z</time>
      </trkpt>
      <trkpt lat="43.21574" lon="2.03209">
        <ele>216.60000610352</ele>
        <time>2024-03-23T15:08:37Z</time>
      </trkpt>
      <trkpt lat="43.21658" lon="2.03198">
        <ele>213.39999389648</ele>
        <time>2024-03-23T15:09:45Z</time>
      </trkpt>
      <trkpt lat="43.21752" lon="2.0317">
        <ele>210.19999694824</ele>
        <time>2024-03-23T15:11:02Z</time>
      </trkpt>
      <trkpt lat="43.21811" lon="2.03217">
        <ele>209.60000610352</ele>
        <time>2024-03-23T15:12:00Z</time>
      </trkpt>
      <trkpt lat="43.21838" lon="2.03242">
        <ele>207.80000305176</ele>
        <time>2024-03-23T15:12:36Z</time>
      </trkpt>
      <trkpt lat="43.21838" lon="2.03245">
        <ele>207.80000305176</ele>
        <time>2024-03-23T15:12:37Z</time>
      </trkpt>
      <trkpt lat="43.21858" lon="2.03278">
        <ele>206.60000610352</ele>
        <time>2024-03-23T15:13:17Z</time>
      </trkpt>
      <trkpt lat="43.2185" lon="2.0327">
        <ele>205.80000305176</ele>
        <time>2024-03-23T15:13:31Z</time>
      </trkpt>
      <trkpt lat="43.21839" lon="2.03308">
        <ele>207.19999694824</ele>
        <time>2024-03-23T15:14:02Z</time>
      </trkpt>
      <trkpt lat="43.21832" lon="2.0331">
        <ele>207.80000305176</ele>
        <time>2024-03-23T15:14:46Z</time>
      </trkpt>
      <trkpt lat="43.21838" lon="2.03345">
        <ele>207</ele>
        <time>2024-03-23T15:15:11Z</time>
      </trkpt>
      <trkpt lat="43.21823" lon="2.03394">
        <ele>205.19999694824</ele>
        <time>2024-03-23T15:15:47Z</time>
      </trkpt>
      <trkpt lat="43.21806" lon="2.03416">
        <ele>204.60000610352</ele>
        <time>2024-03-23T15:16:12Z</time>
      </trkpt>
      <trkpt lat="43.21821" lon="2.03446">
        <ele>203.39999389648</ele>
        <time>2024-03-23T15:16:49Z</time>
      </trkpt>
      <trkpt lat="43.21823" lon="2.03444">
        <ele>203.19999694824</ele>
        <time>2024-03-23T15:17:12Z</time>
      </trkpt>
    </trkseg>
  </trk>
</gpx>